PWSweather.com
Personal Weather Stations
Station Observations
TMASSANO
Herbertsville, Brick, NJ 08724

HerbertsvilleBrick, NJ 08724

Lat: 40.098, Lon: -74.096

Elevation: 16

Station Type: WS 2800

Latest ConditionsUpdated 11:54:30 AM EST Monday, Jan 23, 2017
Currently Today's Max Today's Min Today's Average
Temperature 40.5°F4.7°C 46.5°F8.1°C 40.3°F4.6°C 41.9°F5.5°C
Dew Point 37.8°F3.2°C 45.7°F7.6°C 37.3°F2.9°C 40.3°F4.6°C
Winds 16.6 mph ENE26.7 kmh ENE 35.1 mph ENE56.5 kmh ENE - 13.6 mph 21.9 kmh
Wind Gusts 23.8 mph38.3 kmh 35.1 mph56.5 kmh - -
Humidity 90% 97% 89% 94%
Pressure 29.72 in1006.4 mb 29.80 in1009.1 mb 29.72 in1006.4 mb -
Precipitation - 0.10 in2.5 mm - -
Hour Temp Dew Point Humidity Winds Wind Gusts Pressure Precip Precip Rate Daily Precip Total
11:54 AM 40.5°F4.7°C 37.8°F3.2°C 90% 9.4 mph WNW15.1 kmh WNW 23.8 mph38.3 kmh 29.72 in1006.4 mb 0.02 in0.5 mm 0.00 in0.0 mm 0.10 in2.5 mm
11:53 AM 40.5°F4.7°C 37.8°F3.2°C 90% 19.1 mph E30.7 kmh E 24.3 mph39.1 kmh 29.72 in1006.4 mb 0.02 in0.5 mm 0.00 in0.0 mm 0.10 in2.5 mm
11:52 AM 40.5°F4.7°C 37.8°F3.2°C 90% 15.0 mph NE24.1 kmh NE 26.4 mph42.5 kmh 29.72 in1006.4 mb 0.02 in0.5 mm 0.00 in0.0 mm 0.10 in2.5 mm
11:51 AM 40.5°F4.7°C 37.8°F3.2°C 90% 16.1 mph NNE25.9 kmh NNE 26.4 mph42.5 kmh 29.72 in1006.4 mb 0.02 in0.5 mm 0.00 in0.0 mm 0.10 in2.5 mm
11:50 AM 40.5°F4.7°C 37.8°F3.2°C 90% 17.1 mph ENE27.5 kmh ENE 26.4 mph42.5 kmh 29.72 in1006.4 mb 0.02 in0.5 mm 0.00 in0.0 mm 0.10 in2.5 mm
11:49 AM 40.5°F4.7°C 37.8°F3.2°C 90% 11.9 mph ESE19.2 kmh ESE 26.4 mph42.5 kmh 29.72 in1006.4 mb 0.02 in0.5 mm 0.00 in0.0 mm 0.10 in2.5 mm
11:48 AM 40.5°F4.7°C 37.8°F3.2°C 90% 23.8 mph E38.3 kmh E 31.5 mph50.7 kmh 29.73 in1006.8 mb 0.02 in0.5 mm 0.00 in0.0 mm 0.10 in2.5 mm
11:47 AM 40.3°F4.6°C 37.6°F3.1°C 90% 21.2 mph NE34.1 kmh NE 31.5 mph50.7 kmh 29.73 in1006.8 mb 0.02 in0.5 mm 0.00 in0.0 mm 0.10 in2.5 mm
11:46 AM 40.3°F4.6°C 37.6°F3.1°C 90% 13.0 mph ESE20.9 kmh ESE 31.5 mph50.7 kmh 29.73 in1006.8 mb 0.02 in0.5 mm 0.00 in0.0 mm 0.10 in2.5 mm
11:45 AM 40.3°F4.6°C 37.6°F3.1°C 90% 14.0 mph NNE22.5 kmh NNE 31.5 mph50.7 kmh 29.73 in1006.8 mb 0.02 in0.5 mm 0.00 in0.0 mm 0.10 in2.5 mm
11:44 AM 40.3°F4.6°C 37.6°F3.1°C 90% 18.1 mph NNE29.1 kmh NNE 31.5 mph50.7 kmh 29.73 in1006.8 mb 0.02 in0.5 mm 0.00 in0.0 mm 0.10 in2.5 mm
11:43 AM 40.3°F4.6°C 37.6°F3.1°C 90% 14.0 mph ENE22.5 kmh ENE 31.5 mph50.7 kmh 29.73 in1006.8 mb 0.02 in0.5 mm 0.00 in0.0 mm 0.10 in2.5 mm
11:42 AM 40.3°F4.6°C 37.6°F3.1°C 90% 26.4 mph NE42.5 kmh NE 31.5 mph50.7 kmh 29.73 in1006.8 mb 0.02 in0.5 mm 0.00 in0.0 mm 0.10 in2.5 mm
11:41 AM 40.3°F4.6°C 37.6°F3.1°C 90% 17.1 mph NE27.5 kmh NE 31.5 mph50.7 kmh 29.73 in1006.8 mb 0.02 in0.5 mm 0.00 in0.0 mm 0.10 in2.5 mm
11:40 AM 40.3°F4.6°C 37.6°F3.1°C 90% 16.1 mph ESE25.9 kmh ESE 31.5 mph50.7 kmh 29.73 in1006.8 mb 0.02 in0.5 mm 0.00 in0.0 mm 0.10 in2.5 mm
11:39 AM 40.3°F4.6°C 37.6°F3.1°C 90% 18.6 mph NNE29.9 kmh NNE 31.5 mph50.7 kmh 29.73 in1006.8 mb 0.02 in0.5 mm 0.00 in0.0 mm 0.10 in2.5 mm
11:38 AM 40.3°F4.6°C 37.6°F3.1°C 90% 15.0 mph NNE24.1 kmh NNE 26.9 mph43.3 kmh 29.73 in1006.8 mb 0.02 in0.5 mm 0.00 in0.0 mm 0.10 in2.5 mm
11:37 AM 40.3°F4.6°C 37.6°F3.1°C 90% 22.2 mph ENE35.7 kmh ENE 26.9 mph43.3 kmh 29.73 in1006.8 mb 0.02 in0.5 mm 0.00 in0.0 mm 0.10 in2.5 mm
11:36 AM 40.3°F4.6°C 37.6°F3.1°C 90% 22.2 mph ENE35.7 kmh ENE 26.9 mph43.3 kmh 29.73 in1006.8 mb 0.02 in0.5 mm 0.00 in0.0 mm 0.10 in2.5 mm
11:35 AM 40.3°F4.6°C 37.6°F3.1°C 90% 15.0 mph ESE24.1 kmh ESE 26.9 mph43.3 kmh 29.73 in1006.8 mb 0.02 in0.5 mm 0.00 in0.0 mm 0.10 in2.5 mm
11:34 AM 40.3°F4.6°C 37.6°F3.1°C 90% 14.5 mph NE23.3 kmh NE 28.4 mph45.7 kmh 29.73 in1006.8 mb 0.02 in0.5 mm 0.00 in0.0 mm 0.10 in2.5 mm
11:33 AM 40.3°F4.6°C 37.6°F3.1°C 90% 18.1 mph NE29.1 kmh NE 28.4 mph45.7 kmh 29.73 in1006.8 mb 0.02 in0.5 mm 0.00 in0.0 mm 0.10 in2.5 mm
11:32 AM 40.3°F4.6°C 37.6°F3.1°C 90% 13.5 mph NE21.7 kmh NE 28.4 mph45.7 kmh 29.73 in1006.8 mb 0.02 in0.5 mm 0.00 in0.0 mm 0.10 in2.5 mm
11:31 AM 40.3°F4.6°C 37.6°F3.1°C 90% 26.9 mph NE43.3 kmh NE 28.4 mph45.7 kmh 29.73 in1006.8 mb 0.02 in0.5 mm 0.60 in15.2 mm 0.10 in2.5 mm
11:30 AM 40.3°F4.6°C 37.6°F3.1°C 90% 16.6 mph E26.7 kmh E 28.4 mph45.7 kmh 29.73 in1006.8 mb 0.01 in0.3 mm 0.00 in0.0 mm 0.09 in2.3 mm
11:29 AM 40.3°F4.6°C 37.6°F3.1°C 90% 22.7 mph NE36.5 kmh NE 28.4 mph45.7 kmh 29.73 in1006.8 mb 0.01 in0.3 mm 0.00 in0.0 mm 0.09 in2.3 mm
11:28 AM 40.3°F4.6°C 37.6°F3.1°C 90% 15.5 mph NNE24.9 kmh NNE 28.4 mph45.7 kmh 29.73 in1006.8 mb 0.01 in0.3 mm 0.00 in0.0 mm 0.09 in2.3 mm
11:27 AM 40.3°F4.6°C 37.6°F3.1°C 90% 12.5 mph NNE20.1 kmh NNE 28.4 mph45.7 kmh 29.73 in1006.8 mb 0.01 in0.3 mm 0.00 in0.0 mm 0.09 in2.3 mm
11:26 AM 40.3°F4.6°C 37.6°F3.1°C 90% 20.7 mph NNE33.3 kmh NNE 28.4 mph45.7 kmh 29.73 in1006.8 mb 0.01 in0.3 mm 0.00 in0.0 mm 0.09 in2.3 mm
11:25 AM 40.3°F4.6°C 37.6°F3.1°C 90% 13.5 mph E21.7 kmh E 28.4 mph45.7 kmh 29.73 in1006.8 mb 0.01 in0.3 mm 0.00 in0.0 mm 0.09 in2.3 mm
11:24 AM 40.3°F4.6°C 37.6°F3.1°C 90% 19.1 mph NE30.7 kmh NE 27.9 mph44.9 kmh 29.73 in1006.8 mb 0.01 in0.3 mm 0.00 in0.0 mm 0.09 in2.3 mm
11:23 AM 40.3°F4.6°C 37.6°F3.1°C 90% 27.9 mph NE44.9 kmh NE 27.9 mph44.9 kmh 29.73 in1006.8 mb 0.01 in0.3 mm 0.00 in0.0 mm 0.09 in2.3 mm
11:22 AM 40.3°F4.6°C 37.6°F3.1°C 90% 7.8 mph E12.6 kmh E 26.4 mph42.5 kmh 29.73 in1006.8 mb 0.01 in0.3 mm 0.00 in0.0 mm 0.09 in2.3 mm
11:21 AM 40.3°F4.6°C 37.6°F3.1°C 90% 14.0 mph E22.5 kmh E 26.4 mph42.5 kmh 29.73 in1006.8 mb 0.01 in0.3 mm 0.00 in0.0 mm 0.09 in2.3 mm
11:20 AM 40.3°F4.6°C 37.6°F3.1°C 90% 18.1 mph NE29.1 kmh NE 26.4 mph42.5 kmh 29.73 in1006.8 mb 0.01 in0.3 mm 0.00 in0.0 mm 0.09 in2.3 mm
11:19 AM 40.3°F4.6°C 37.6°F3.1°C 90% 20.2 mph ENE32.5 kmh ENE 26.4 mph42.5 kmh 29.73 in1006.8 mb 0.01 in0.3 mm 0.00 in0.0 mm 0.09 in2.3 mm
11:18 AM 40.3°F4.6°C 37.6°F3.1°C 90% 19.1 mph NNE30.7 kmh NNE 26.4 mph42.5 kmh 29.73 in1006.8 mb 0.01 in0.3 mm 0.00 in0.0 mm 0.09 in2.3 mm
11:17 AM 40.3°F4.6°C 37.6°F3.1°C 90% 18.6 mph E29.9 kmh E 26.4 mph42.5 kmh 29.73 in1006.8 mb 0.01 in0.3 mm 0.00 in0.0 mm 0.09 in2.3 mm
11:16 AM 40.3°F4.6°C 37.6°F3.1°C 90% 18.1 mph NE29.1 kmh NE 26.4 mph42.5 kmh 29.73 in1006.8 mb 0.01 in0.3 mm 0.00 in0.0 mm 0.09 in2.3 mm
11:15 AM 40.3°F4.6°C 37.6°F3.1°C 90% 23.3 mph NE37.5 kmh NE 26.4 mph42.5 kmh 29.73 in1006.8 mb 0.01 in0.3 mm 0.00 in0.0 mm 0.09 in2.3 mm
11:14 AM 40.3°F4.6°C 37.6°F3.1°C 90% 26.4 mph ESE42.5 kmh ESE 26.4 mph42.5 kmh 29.73 in1006.8 mb 0.01 in0.3 mm 0.00 in0.0 mm 0.09 in2.3 mm
11:13 AM 40.3°F4.6°C 37.6°F3.1°C 90% 23.8 mph NE38.3 kmh NE 24.8 mph39.9 kmh 29.73 in1006.8 mb 0.01 in0.3 mm 0.00 in0.0 mm 0.09 in2.3 mm
11:12 AM 40.3°F4.6°C 37.6°F3.1°C 90% 15.0 mph NNE24.1 kmh NNE 24.8 mph39.9 kmh 29.73 in1006.8 mb 0.01 in0.3 mm 0.00 in0.0 mm 0.09 in2.3 mm
11:11 AM 40.3°F4.6°C 37.6°F3.1°C 90% 16.1 mph E25.9 kmh E 24.8 mph39.9 kmh 29.73 in1006.8 mb 0.01 in0.3 mm 0.00 in0.0 mm 0.09 in2.3 mm
11:10 AM 40.3°F4.6°C 37.6°F3.1°C 90% 14.0 mph NNE22.5 kmh NNE 28.9 mph46.5 kmh 29.73 in1006.8 mb 0.01 in0.3 mm 0.00 in0.0 mm 0.09 in2.3 mm
11:09 AM 40.3°F4.6°C 37.6°F3.1°C 90% 10.4 mph ESE16.7 kmh ESE 28.9 mph46.5 kmh 29.73 in1006.8 mb 0.01 in0.3 mm 0.00 in0.0 mm 0.09 in2.3 mm
11:08 AM 40.3°F4.6°C 37.6°F3.1°C 90% 15.0 mph E24.1 kmh E 28.9 mph46.5 kmh 29.73 in1006.8 mb 0.01 in0.3 mm 0.00 in0.0 mm 0.09 in2.3 mm
11:07 AM 40.3°F4.6°C 37.6°F3.1°C 90% 9.9 mph E15.9 kmh E 28.9 mph46.5 kmh 29.73 in1006.8 mb 0.01 in0.3 mm 0.00 in0.0 mm 0.09 in2.3 mm
11:06 AM 40.3°F4.6°C 37.6°F3.1°C 90% 8.9 mph ESE14.3 kmh ESE 28.9 mph46.5 kmh 29.73 in1006.8 mb 0.01 in0.3 mm 0.00 in0.0 mm 0.09 in2.3 mm
11:05 AM 40.3°F4.6°C 37.6°F3.1°C 90% 23.3 mph SSE37.5 kmh SSE 28.9 mph46.5 kmh 29.73 in1006.8 mb 0.01 in0.3 mm 0.00 in0.0 mm 0.09 in2.3 mm
11:04 AM 40.3°F4.6°C 37.6°F3.1°C 90% 19.1 mph N30.7 kmh N 28.9 mph46.5 kmh 29.73 in1006.8 mb 0.01 in0.3 mm 0.00 in0.0 mm 0.09 in2.3 mm
11:03 AM 40.3°F4.6°C 37.6°F3.1°C 90% 19.7 mph NNE31.7 kmh NNE 28.9 mph46.5 kmh 29.73 in1006.8 mb 0.01 in0.3 mm 0.00 in0.0 mm 0.09 in2.3 mm
11:02 AM 40.3°F4.6°C 37.6°F3.1°C 90% 9.4 mph NE15.1 kmh NE 28.9 mph46.5 kmh 29.73 in1006.8 mb 0.01 in0.3 mm 0.00 in0.0 mm 0.09 in2.3 mm
11:01 AM 40.3°F4.6°C 37.6°F3.1°C 90% 18.1 mph ESE29.1 kmh ESE 28.9 mph46.5 kmh 29.74 in1007.1 mb 0.01 in0.3 mm 0.00 in0.0 mm 0.09 in2.3 mm
11:00 AM 40.3°F4.6°C 37.6°F3.1°C 90% 14.0 mph NNE22.5 kmh NNE 27.4 mph44.1 kmh 29.74 in1007.1 mb 0.01 in0.3 mm 0.00 in0.0 mm 0.09 in2.3 mm
10:59 AM 40.3°F4.6°C 37.6°F3.1°C 90% 12.5 mph ENE20.1 kmh ENE 27.4 mph44.1 kmh 29.74 in1007.1 mb 0.01 in0.3 mm 0.00 in0.0 mm 0.09 in2.3 mm
10:58 AM 40.3°F4.6°C 37.6°F3.1°C 90% 18.6 mph ENE29.9 kmh ENE 27.4 mph44.1 kmh 29.74 in1007.1 mb 0.01 in0.3 mm 0.00 in0.0 mm 0.09 in2.3 mm
10:57 AM 40.3°F4.6°C 37.6°F3.1°C 90% 18.6 mph ESE29.9 kmh ESE 27.4 mph44.1 kmh 29.74 in1007.1 mb 0.01 in0.3 mm 0.60 in15.2 mm 0.09 in2.3 mm
10:56 AM 40.3°F4.6°C 37.6°F3.1°C 90% 19.7 mph NE31.7 kmh NE 27.4 mph44.1 kmh 29.74 in1007.1 mb 0.00 in0.0 mm 0.00 in0.0 mm 0.08 in2.0 mm
10:55 AM 40.3°F4.6°C 37.6°F3.1°C 90% 19.1 mph NE30.7 kmh NE 27.4 mph44.1 kmh 29.74 in1007.1 mb 0.00 in0.0 mm 0.00 in0.0 mm 0.08 in2.0 mm
10:54 AM 40.3°F4.6°C 37.9°F3.3°C 91% 27.4 mph E44.1 kmh E 27.4 mph44.1 kmh 29.74 in1007.1 mb 0.00 in0.0 mm 0.00 in0.0 mm 0.08 in2.0 mm
10:53 AM 40.3°F4.6°C 37.9°F3.3°C 91% 24.3 mph ENE39.1 kmh ENE 27.4 mph44.1 kmh 29.74 in1007.1 mb 0.00 in0.0 mm 0.00 in0.0 mm 0.08 in2.0 mm
10:52 AM 40.3°F4.6°C 37.9°F3.3°C 91% 22.7 mph ESE36.5 kmh ESE 27.4 mph44.1 kmh 29.74 in1007.1 mb 0.00 in0.0 mm 0.00 in0.0 mm 0.08 in2.0 mm
10:51 AM 40.3°F4.6°C 37.9°F3.3°C 91% 22.2 mph E35.7 kmh E 27.4 mph44.1 kmh 29.74 in1007.1 mb 0.00 in0.0 mm 0.00 in0.0 mm 0.08 in2.0 mm
10:50 AM 40.3°F4.6°C 37.9°F3.3°C 91% 22.2 mph NE35.7 kmh NE 27.4 mph44.1 kmh 29.77 in1008.1 mb 0.00 in0.0 mm 0.00 in0.0 mm 0.08 in2.0 mm
10:49 AM 40.3°F4.6°C 37.9°F3.3°C 91% 1.7 mph ESE2.7 kmh ESE 27.4 mph44.1 kmh 29.77 in1008.1 mb 0.00 in0.0 mm 0.00 in0.0 mm 0.08 in2.0 mm
10:48 AM 40.3°F4.6°C 37.9°F3.3°C 91% 17.1 mph NNE27.5 kmh NNE 27.4 mph44.1 kmh 29.77 in1008.1 mb 0.00 in0.0 mm 0.00 in0.0 mm 0.08 in2.0 mm
10:47 AM 40.3°F4.6°C 37.9°F3.3°C 91% 20.2 mph E32.5 kmh E 27.4 mph44.1 kmh 29.77 in1008.1 mb 0.00 in0.0 mm 0.00 in0.0 mm 0.08 in2.0 mm
10:46 AM 40.3°F4.6°C 38.2°F3.4°C 92% 16.1 mph E25.9 kmh E 27.4 mph44.1 kmh 29.77 in1008.1 mb 0.00 in0.0 mm 0.00 in0.0 mm 0.08 in2.0 mm
10:45 AM 40.3°F4.6°C 38.2°F3.4°C 92% 13.0 mph ENE20.9 kmh ENE 26.9 mph43.3 kmh 29.77 in1008.1 mb 0.00 in0.0 mm 0.00 in0.0 mm 0.08 in2.0 mm
10:44 AM 40.3°F4.6°C 38.2°F3.4°C 92% 14.5 mph ESE23.3 kmh ESE 26.9 mph43.3 kmh 29.77 in1008.1 mb 0.01 in0.3 mm 0.00 in0.0 mm 0.08 in2.0 mm
10:43 AM 40.3°F4.6°C 38.2°F3.4°C 92% 22.2 mph NNE35.7 kmh NNE 26.9 mph43.3 kmh 29.77 in1008.1 mb 0.01 in0.3 mm 0.00 in0.0 mm 0.08 in2.0 mm
10:42 AM 40.3°F4.6°C 38.2°F3.4°C 92% 18.1 mph ENE29.1 kmh ENE 35.1 mph56.5 kmh 29.77 in1008.1 mb 0.01 in0.3 mm 0.00 in0.0 mm 0.08 in2.0 mm
10:41 AM 40.3°F4.6°C 38.2°F3.4°C 92% 16.1 mph ENE25.9 kmh ENE 35.1 mph56.5 kmh 29.77 in1008.1 mb 0.01 in0.3 mm 0.00 in0.0 mm 0.08 in2.0 mm
10:40 AM 40.3°F4.6°C 37.9°F3.3°C 91% 17.1 mph NE27.5 kmh NE 35.1 mph56.5 kmh 29.77 in1008.1 mb 0.01 in0.3 mm 0.00 in0.0 mm 0.08 in2.0 mm
10:39 AM 40.3°F4.6°C 37.9°F3.3°C 91% 20.2 mph NE32.5 kmh NE 35.1 mph56.5 kmh 29.77 in1008.1 mb 0.01 in0.3 mm 0.00 in0.0 mm 0.08 in2.0 mm
10:38 AM 40.3°F4.6°C 37.9°F3.3°C 91% 4.2 mph E6.8 kmh E 35.1 mph56.5 kmh 29.77 in1008.1 mb 0.01 in0.3 mm 0.00 in0.0 mm 0.08 in2.0 mm
10:37 AM 40.3°F4.6°C 37.9°F3.3°C 91% 13.0 mph ENE20.9 kmh ENE 35.1 mph56.5 kmh 29.79 in1008.8 mb 0.01 in0.3 mm 0.00 in0.0 mm 0.08 in2.0 mm
10:36 AM 40.3°F4.6°C 37.9°F3.3°C 91% 25.8 mph ENE41.5 kmh ENE 35.1 mph56.5 kmh 29.79 in1008.8 mb 0.01 in0.3 mm 0.00 in0.0 mm 0.08 in2.0 mm
10:35 AM 40.3°F4.6°C 37.9°F3.3°C 91% 23.3 mph ENE37.5 kmh ENE 35.1 mph56.5 kmh 29.79 in1008.8 mb 0.01 in0.3 mm 0.00 in0.0 mm 0.08 in2.0 mm
10:34 AM 40.3°F4.6°C 37.9°F3.3°C 91% 23.3 mph NE37.5 kmh NE 35.1 mph56.5 kmh 29.79 in1008.8 mb 0.01 in0.3 mm 0.00 in0.0 mm 0.08 in2.0 mm
10:33 AM 40.3°F4.6°C 37.9°F3.3°C 91% 17.6 mph WNW28.3 kmh WNW 35.1 mph56.5 kmh 29.79 in1008.8 mb 0.01 in0.3 mm 0.00 in0.0 mm 0.08 in2.0 mm
10:32 AM 40.3°F4.6°C 37.9°F3.3°C 91% 17.6 mph ENE28.3 kmh ENE 30.0 mph48.3 kmh 29.79 in1008.8 mb 0.01 in0.3 mm 0.00 in0.0 mm 0.08 in2.0 mm
10:31 AM 40.3°F4.6°C 37.9°F3.3°C 91% 11.9 mph ESE19.2 kmh ESE 30.0 mph48.3 kmh 29.79 in1008.8 mb 0.01 in0.3 mm 0.00 in0.0 mm 0.08 in2.0 mm
10:30 AM 40.3°F4.6°C 37.9°F3.3°C 91% 10.4 mph NE16.7 kmh NE 30.0 mph48.3 kmh 29.79 in1008.8 mb 0.01 in0.3 mm 0.00 in0.0 mm 0.08 in2.0 mm
10:29 AM 40.3°F4.6°C 37.9°F3.3°C 91% 29.4 mph NNE47.3 kmh NNE 30.0 mph48.3 kmh 29.79 in1008.8 mb 0.01 in0.3 mm 0.00 in0.0 mm 0.08 in2.0 mm
10:28 AM 40.3°F4.6°C 37.9°F3.3°C 91% 19.1 mph ENE30.7 kmh ENE 30.0 mph48.3 kmh 29.79 in1008.8 mb 0.01 in0.3 mm 0.00 in0.0 mm 0.08 in2.0 mm
10:27 AM 40.3°F4.6°C 38.2°F3.4°C 92% 20.7 mph NE33.3 kmh NE 30.0 mph48.3 kmh 29.79 in1008.8 mb 0.01 in0.3 mm 0.00 in0.0 mm 0.08 in2.0 mm
10:26 AM 40.3°F4.6°C 38.2°F3.4°C 92% 24.3 mph ENE39.1 kmh ENE 30.0 mph48.3 kmh 29.79 in1008.8 mb 0.01 in0.3 mm 0.00 in0.0 mm 0.08 in2.0 mm
10:25 AM 40.3°F4.6°C 38.4°F3.6°C 93% 17.1 mph ENE27.5 kmh ENE 30.0 mph48.3 kmh 29.79 in1008.8 mb 0.01 in0.3 mm 0.00 in0.0 mm 0.08 in2.0 mm
10:24 AM 40.3°F4.6°C 38.4°F3.6°C 93% 12.5 mph NNE20.1 kmh NNE 30.0 mph48.3 kmh 29.79 in1008.8 mb 0.01 in0.3 mm 0.00 in0.0 mm 0.08 in2.0 mm
10:23 AM 40.3°F4.6°C 38.4°F3.6°C 93% 21.2 mph ENE34.1 kmh ENE 30.0 mph48.3 kmh 29.79 in1008.8 mb 0.01 in0.3 mm 0.00 in0.0 mm 0.08 in2.0 mm
10:22 AM 40.3°F4.6°C 38.4°F3.6°C 93% 15.5 mph E24.9 kmh E 25.3 mph40.7 kmh 29.79 in1008.8 mb 0.02 in0.5 mm 0.00 in0.0 mm 0.08 in2.0 mm
10:21 AM 40.3°F4.6°C 38.4°F3.6°C 93% 14.0 mph NE22.5 kmh NE 25.3 mph40.7 kmh 29.79 in1008.8 mb 0.02 in0.5 mm 0.00 in0.0 mm 0.08 in2.0 mm
10:20 AM 40.3°F4.6°C 38.4°F3.6°C 93% 9.9 mph ENE15.9 kmh ENE 25.3 mph40.7 kmh 29.79 in1008.8 mb 0.02 in0.5 mm 0.00 in0.0 mm 0.08 in2.0 mm
10:19 AM 40.3°F4.6°C 38.4°F3.6°C 93% 9.9 mph E15.9 kmh E 25.3 mph40.7 kmh 29.79 in1008.8 mb 0.02 in0.5 mm 0.00 in0.0 mm 0.08 in2.0 mm
10:18 AM 40.3°F4.6°C 38.4°F3.6°C 93% 13.0 mph NE20.9 kmh NE 25.3 mph40.7 kmh 29.79 in1008.8 mb 0.02 in0.5 mm 0.00 in0.0 mm 0.08 in2.0 mm
10:17 AM 40.3°F4.6°C 38.4°F3.6°C 93% 18.6 mph E29.9 kmh E 25.8 mph41.5 kmh 29.79 in1008.8 mb 0.02 in0.5 mm 0.00 in0.0 mm 0.08 in2.0 mm
10:16 AM 40.3°F4.6°C 38.4°F3.6°C 93% 9.9 mph ESE15.9 kmh ESE 25.8 mph41.5 kmh 29.79 in1008.8 mb 0.02 in0.5 mm 0.00 in0.0 mm 0.08 in2.0 mm
10:15 AM 40.3°F4.6°C 38.4°F3.6°C 93% 15.5 mph NNW24.9 kmh NNW 30.5 mph49.1 kmh 29.79 in1008.8 mb 0.02 in0.5 mm 0.00 in0.0 mm 0.08 in2.0 mm
10:14 AM 40.3°F4.6°C 38.4°F3.6°C 93% 10.4 mph ESE16.7 kmh ESE 30.5 mph49.1 kmh 29.79 in1008.8 mb 0.02 in0.5 mm 0.00 in0.0 mm 0.08 in2.0 mm
10:13 AM 40.3°F4.6°C 38.4°F3.6°C 93% 12.5 mph E20.1 kmh E 30.5 mph49.1 kmh 29.77 in1008.1 mb 0.02 in0.5 mm 0.00 in0.0 mm 0.08 in2.0 mm
10:12 AM 40.3°F4.6°C 38.4°F3.6°C 93% 23.8 mph NE38.3 kmh NE 30.5 mph49.1 kmh 29.77 in1008.1 mb 0.02 in0.5 mm 0.00 in0.0 mm 0.08 in2.0 mm
10:11 AM 40.3°F4.6°C 38.4°F3.6°C 93% 9.9 mph ENE15.9 kmh ENE 30.5 mph49.1 kmh 29.77 in1008.1 mb 0.02 in0.5 mm 0.00 in0.0 mm 0.08 in2.0 mm
10:10 AM 40.3°F4.6°C 38.4°F3.6°C 93% 15.0 mph ESE24.1 kmh ESE 30.5 mph49.1 kmh 29.77 in1008.1 mb 0.02 in0.5 mm 0.00 in0.0 mm 0.08 in2.0 mm
10:09 AM 40.3°F4.6°C 38.4°F3.6°C 93% 17.6 mph ENE28.3 kmh ENE 30.5 mph49.1 kmh 29.77 in1008.1 mb 0.03 in0.8 mm 0.00 in0.0 mm 0.08 in2.0 mm
10:08 AM 40.3°F4.6°C 38.4°F3.6°C 93% 18.6 mph ENE29.9 kmh ENE 30.5 mph49.1 kmh 29.77 in1008.1 mb 0.03 in0.8 mm 0.00 in0.0 mm 0.08 in2.0 mm
10:07 AM 40.3°F4.6°C 38.7°F3.7°C 94% 25.8 mph E41.5 kmh E 30.5 mph49.1 kmh 29.77 in1008.1 mb 0.03 in0.8 mm 0.00 in0.0 mm 0.08 in2.0 mm
10:06 AM 40.3°F4.6°C 38.7°F3.7°C 94% 8.3 mph E13.4 kmh E 30.5 mph49.1 kmh 29.77 in1008.1 mb 0.03 in0.8 mm 0.00 in0.0 mm 0.08 in2.0 mm
10:05 AM 40.3°F4.6°C 38.7°F3.7°C 94% 16.1 mph NNE25.9 kmh NNE 27.9 mph44.9 kmh 29.77 in1008.1 mb 0.03 in0.8 mm 0.00 in0.0 mm 0.08 in2.0 mm
10:04 AM 40.3°F4.6°C 38.7°F3.7°C 94% 20.7 mph NE33.3 kmh NE 27.9 mph44.9 kmh 29.77 in1008.1 mb 0.03 in0.8 mm 0.00 in0.0 mm 0.08 in2.0 mm
10:03 AM 40.3°F4.6°C 38.7°F3.7°C 94% 17.1 mph NE27.5 kmh NE 27.9 mph44.9 kmh 29.77 in1008.1 mb 0.03 in0.8 mm 0.00 in0.0 mm 0.08 in2.0 mm
10:02 AM 40.3°F4.6°C 38.7°F3.7°C 94% 27.9 mph NE44.9 kmh NE 27.9 mph44.9 kmh 29.77 in1008.1 mb 0.03 in0.8 mm 0.00 in0.0 mm 0.08 in2.0 mm
10:01 AM 40.3°F4.6°C 38.7°F3.7°C 94% Calm Calm 26.4 mph42.5 kmh 29.77 in1008.1 mb 0.03 in0.8 mm 0.00 in0.0 mm 0.08 in2.0 mm
10:00 AM 40.3°F4.6°C 38.7°F3.7°C 94% 19.7 mph ESE31.7 kmh ESE 26.4 mph42.5 kmh 29.78 in1008.5 mb 0.03 in0.8 mm 0.00 in0.0 mm 0.08 in2.0 mm
09:59 AM 40.3°F4.6°C 38.7°F3.7°C 94% 8.9 mph E14.3 kmh E 26.4 mph42.5 kmh 29.78 in1008.5 mb 0.03 in0.8 mm 0.00 in0.0 mm 0.08 in2.0 mm
09:58 AM 40.3°F4.6°C 38.7°F3.7°C 94% 15.0 mph NE24.1 kmh NE 26.4 mph42.5 kmh 29.78 in1008.5 mb 0.03 in0.8 mm 0.00 in0.0 mm 0.08 in2.0 mm
09:57 AM 40.3°F4.6°C 38.7°F3.7°C 94% 13.0 mph E20.9 kmh E 26.4 mph42.5 kmh 29.78 in1008.5 mb 0.03 in0.8 mm 0.00 in0.0 mm 0.08 in2.0 mm
09:56 AM 40.3°F4.6°C 38.7°F3.7°C 94% 14.0 mph E22.5 kmh E 26.4 mph42.5 kmh 29.78 in1008.5 mb 0.03 in0.8 mm 0.00 in0.0 mm 0.08 in2.0 mm
09:55 AM 40.3°F4.6°C 38.7°F3.7°C 94% 14.0 mph NNE22.5 kmh NNE 25.8 mph41.5 kmh 29.78 in1008.5 mb 0.03 in0.8 mm 0.00 in0.0 mm 0.08 in2.0 mm
09:54 AM 40.3°F4.6°C 38.7°F3.7°C 94% 13.5 mph NNE21.7 kmh NNE 30.5 mph49.1 kmh 29.78 in1008.5 mb 0.03 in0.8 mm 0.00 in0.0 mm 0.08 in2.0 mm
09:53 AM 40.3°F4.6°C 38.7°F3.7°C 94% 16.1 mph NE25.9 kmh NE 30.5 mph49.1 kmh 29.78 in1008.5 mb 0.03 in0.8 mm 0.00 in0.0 mm 0.08 in2.0 mm
09:52 AM 40.3°F4.6°C 38.7°F3.7°C 94% 11.4 mph E18.3 kmh E 30.5 mph49.1 kmh 29.78 in1008.5 mb 0.03 in0.8 mm 0.00 in0.0 mm 0.08 in2.0 mm
09:51 AM 40.3°F4.6°C 38.7°F3.7°C 94% 25.3 mph NE40.7 kmh NE 30.5 mph49.1 kmh 29.78 in1008.5 mb 0.04 in1.0 mm 0.00 in0.0 mm 0.08 in2.0 mm
09:50 AM 40.3°F4.6°C 38.7°F3.7°C 94% 10.9 mph NE17.5 kmh NE 30.5 mph49.1 kmh 29.78 in1008.5 mb 0.04 in1.0 mm 0.00 in0.0 mm 0.08 in2.0 mm
09:49 AM 40.3°F4.6°C 38.7°F3.7°C 94% 9.9 mph E15.9 kmh E 30.5 mph49.1 kmh 29.79 in1008.8 mb 0.04 in1.0 mm 0.00 in0.0 mm 0.08 in2.0 mm
09:48 AM 40.3°F4.6°C 38.7°F3.7°C 94% 14.0 mph NNE22.5 kmh NNE 30.5 mph49.1 kmh 29.79 in1008.8 mb 0.04 in1.0 mm 0.00 in0.0 mm 0.08 in2.0 mm
09:47 AM 40.3°F4.6°C 38.7°F3.7°C 94% 9.9 mph NNE15.9 kmh NNE 30.5 mph49.1 kmh 29.79 in1008.8 mb 0.04 in1.0 mm 0.00 in0.0 mm 0.08 in2.0 mm
09:46 AM 40.3°F4.6°C 38.7°F3.7°C 94% 16.1 mph NE25.9 kmh NE 30.5 mph49.1 kmh 29.79 in1008.8 mb 0.04 in1.0 mm 0.00 in0.0 mm 0.08 in2.0 mm
09:45 AM 40.3°F4.6°C 38.7°F3.7°C 94% 18.6 mph NE29.9 kmh NE 30.5 mph49.1 kmh 29.79 in1008.8 mb 0.04 in1.0 mm 0.60 in15.2 mm 0.08 in2.0 mm
09:44 AM 40.3°F4.6°C 38.7°F3.7°C 94% 24.3 mph ENE39.1 kmh ENE 25.3 mph40.7 kmh 29.79 in1008.8 mb 0.03 in0.8 mm 0.00 in0.0 mm 0.07 in1.8 mm
09:43 AM 40.3°F4.6°C 38.7°F3.7°C 94% 15.0 mph E24.1 kmh E 25.3 mph40.7 kmh 29.79 in1008.8 mb 0.03 in0.8 mm 0.00 in0.0 mm 0.07 in1.8 mm
09:42 AM 40.3°F4.6°C 38.7°F3.7°C 94% 15.0 mph E24.1 kmh E 25.3 mph40.7 kmh 29.79 in1008.8 mb 0.03 in0.8 mm 0.00 in0.0 mm 0.07 in1.8 mm
09:41 AM 40.3°F4.6°C 38.7°F3.7°C 94% 14.0 mph E22.5 kmh E 25.3 mph40.7 kmh 29.79 in1008.8 mb 0.03 in0.8 mm 0.00 in0.0 mm 0.07 in1.8 mm
09:40 AM 40.3°F4.6°C 38.7°F3.7°C 94% 14.0 mph NNE22.5 kmh NNE 27.9 mph44.9 kmh 29.79 in1008.8 mb 0.03 in0.8 mm 0.00 in0.0 mm 0.07 in1.8 mm
09:39 AM 40.3°F4.6°C 38.7°F3.7°C 94% 10.9 mph ENE17.5 kmh ENE 27.9 mph44.9 kmh 29.79 in1008.8 mb 0.03 in0.8 mm 0.00 in0.0 mm 0.07 in1.8 mm
09:38 AM 40.3°F4.6°C 38.7°F3.7°C 94% 10.4 mph SW16.7 kmh SW 27.9 mph44.9 kmh 29.79 in1008.8 mb 0.03 in0.8 mm 0.00 in0.0 mm 0.07 in1.8 mm
09:37 AM 40.3°F4.6°C 38.7°F3.7°C 94% 21.7 mph E34.9 kmh E 27.9 mph44.9 kmh 29.79 in1008.8 mb 0.03 in0.8 mm 0.00 in0.0 mm 0.07 in1.8 mm
09:36 AM 40.3°F4.6°C 38.7°F3.7°C 94% 13.0 mph E20.9 kmh E 27.9 mph44.9 kmh 29.78 in1008.5 mb 0.03 in0.8 mm 0.00 in0.0 mm 0.07 in1.8 mm
09:35 AM 40.3°F4.6°C 38.7°F3.7°C 94% 15.5 mph ENE24.9 kmh ENE 28.4 mph45.7 kmh 29.78 in1008.5 mb 0.03 in0.8 mm 0.00 in0.0 mm 0.07 in1.8 mm
09:34 AM 40.3°F4.6°C 38.7°F3.7°C 94% 21.2 mph N34.1 kmh N 28.4 mph45.7 kmh 29.78 in1008.5 mb 0.03 in0.8 mm 0.00 in0.0 mm 0.07 in1.8 mm
09:33 AM 40.3°F4.6°C 38.7°F3.7°C 94% 11.9 mph NE19.2 kmh NE 28.4 mph45.7 kmh 29.78 in1008.5 mb 0.03 in0.8 mm 0.00 in0.0 mm 0.07 in1.8 mm
09:32 AM 40.3°F4.6°C 38.7°F3.7°C 94% 11.4 mph ENE18.3 kmh ENE 28.4 mph45.7 kmh 29.78 in1008.5 mb 0.03 in0.8 mm 0.00 in0.0 mm 0.07 in1.8 mm
09:31 AM 40.3°F4.6°C 38.7°F3.7°C 94% 16.6 mph NNE26.7 kmh NNE 28.4 mph45.7 kmh 29.78 in1008.5 mb 0.03 in0.8 mm 0.00 in0.0 mm 0.07 in1.8 mm
09:30 AM 40.3°F4.6°C 38.7°F3.7°C 94% 18.6 mph N29.9 kmh N 28.4 mph45.7 kmh 29.78 in1008.5 mb 0.03 in0.8 mm 0.00 in0.0 mm 0.07 in1.8 mm
09:29 AM 40.3°F4.6°C 38.7°F3.7°C 94% 19.1 mph N30.7 kmh N 28.4 mph45.7 kmh 29.78 in1008.5 mb 0.03 in0.8 mm 0.00 in0.0 mm 0.07 in1.8 mm
09:28 AM 40.3°F4.6°C 38.7°F3.7°C 94% 3.7 mph E6.0 kmh E 28.4 mph45.7 kmh 29.78 in1008.5 mb 0.03 in0.8 mm 0.00 in0.0 mm 0.07 in1.8 mm
09:27 AM 40.3°F4.6°C 38.7°F3.7°C 94% 14.0 mph NNE22.5 kmh NNE 28.4 mph45.7 kmh 29.78 in1008.5 mb 0.03 in0.8 mm 0.00 in0.0 mm 0.07 in1.8 mm
09:26 AM 40.3°F4.6°C 38.7°F3.7°C 94% 18.6 mph NE29.9 kmh NE 28.4 mph45.7 kmh 29.78 in1008.5 mb 0.03 in0.8 mm 0.00 in0.0 mm 0.07 in1.8 mm
09:25 AM 40.3°F4.6°C 38.7°F3.7°C 94% 16.1 mph ENE25.9 kmh ENE 24.3 mph39.1 kmh 29.78 in1008.5 mb 0.03 in0.8 mm 0.00 in0.0 mm 0.07 in1.8 mm
09:24 AM 40.3°F4.6°C 38.7°F3.7°C 94% 1.1 mph ESE1.8 kmh ESE 24.3 mph39.1 kmh 29.79 in1008.8 mb 0.03 in0.8 mm 0.00 in0.0 mm 0.07 in1.8 mm
09:23 AM 40.3°F4.6°C 38.7°F3.7°C 94% 8.9 mph ENE14.3 kmh ENE 24.3 mph39.1 kmh 29.79 in1008.8 mb 0.03 in0.8 mm 0.60 in15.2 mm 0.07 in1.8 mm
09:22 AM 40.3°F4.6°C 38.7°F3.7°C 94% 13.5 mph E21.7 kmh E 24.3 mph39.1 kmh 29.79 in1008.8 mb 0.02 in0.5 mm 0.00 in0.0 mm 0.06 in1.5 mm
09:21 AM 40.3°F4.6°C 38.7°F3.7°C 94% 11.9 mph E19.2 kmh E 24.3 mph39.1 kmh 29.79 in1008.8 mb 0.02 in0.5 mm 0.00 in0.0 mm 0.06 in1.5 mm
09:20 AM 40.3°F4.6°C 38.7°F3.7°C 94% 8.3 mph ENE13.4 kmh ENE 21.7 mph34.9 kmh 29.79 in1008.8 mb 0.02 in0.5 mm 0.00 in0.0 mm 0.06 in1.5 mm
09:19 AM 40.3°F4.6°C 38.7°F3.7°C 94% 14.5 mph ENE23.3 kmh ENE 21.7 mph34.9 kmh 29.79 in1008.8 mb 0.02 in0.5 mm 0.00 in0.0 mm 0.06 in1.5 mm
09:18 AM 40.3°F4.6°C 38.7°F3.7°C 94% 11.9 mph ENE19.2 kmh ENE 21.7 mph34.9 kmh 29.79 in1008.8 mb 0.02 in0.5 mm 0.00 in0.0 mm 0.06 in1.5 mm
09:17 AM 40.3°F4.6°C 38.7°F3.7°C 94% 18.6 mph E29.9 kmh E 21.7 mph34.9 kmh 29.79 in1008.8 mb 0.02 in0.5 mm 0.00 in0.0 mm 0.06 in1.5 mm
09:16 AM 40.3°F4.6°C 38.7°F3.7°C 94% 11.4 mph NE18.3 kmh NE 21.7 mph34.9 kmh 29.79 in1008.8 mb 0.02 in0.5 mm 0.00 in0.0 mm 0.06 in1.5 mm
09:15 AM 40.3°F4.6°C 38.7°F3.7°C 94% 14.0 mph ENE22.5 kmh ENE 21.7 mph34.9 kmh 29.79 in1008.8 mb 0.02 in0.5 mm 0.00 in0.0 mm 0.06 in1.5 mm
09:14 AM 40.3°F4.6°C 38.7°F3.7°C 94% 21.7 mph NE34.9 kmh NE 21.7 mph34.9 kmh 29.79 in1008.8 mb 0.02 in0.5 mm 0.00 in0.0 mm 0.06 in1.5 mm
09:13 AM 40.3°F4.6°C 38.7°F3.7°C 94% 13.5 mph ESE21.7 kmh ESE 20.2 mph32.5 kmh 29.79 in1008.8 mb 0.02 in0.5 mm 0.00 in0.0 mm 0.06 in1.5 mm
09:12 AM 40.5°F4.7°C 38.9°F3.8°C 94% 6.8 mph NE10.9 kmh NE 20.2 mph32.5 kmh 29.77 in1008.1 mb 0.02 in0.5 mm 0.00 in0.0 mm 0.06 in1.5 mm
09:11 AM 40.5°F4.7°C 38.9°F3.8°C 94% 4.7 mph NNE7.6 kmh NNE 20.2 mph32.5 kmh 29.77 in1008.1 mb 0.02 in0.5 mm 0.00 in0.0 mm 0.06 in1.5 mm
09:10 AM 40.5°F4.7°C 38.9°F3.8°C 94% 16.6 mph ENE26.7 kmh ENE 19.7 mph31.7 kmh 29.77 in1008.1 mb 0.02 in0.5 mm 0.60 in15.2 mm 0.06 in1.5 mm
09:09 AM 40.5°F4.7°C 38.9°F3.8°C 94% 14.0 mph NE22.5 kmh NE 18.6 mph29.9 kmh 29.77 in1008.1 mb 0.01 in0.3 mm 0.00 in0.0 mm 0.05 in1.3 mm
09:08 AM 40.5°F4.7°C 38.9°F3.8°C 94% 8.9 mph E14.3 kmh E 20.2 mph32.5 kmh 29.77 in1008.1 mb 0.01 in0.3 mm 0.00 in0.0 mm 0.05 in1.3 mm
09:07 AM 40.5°F4.7°C 38.9°F3.8°C 94% 11.4 mph ESE18.3 kmh ESE 20.2 mph32.5 kmh 29.77 in1008.1 mb 0.01 in0.3 mm 0.00 in0.0 mm 0.05 in1.3 mm
09:06 AM 40.5°F4.7°C 38.6°F3.7°C 93% 2.2 mph ESE3.5 kmh ESE 20.2 mph32.5 kmh 29.77 in1008.1 mb 0.01 in0.3 mm 0.00 in0.0 mm 0.05 in1.3 mm
09:05 AM 40.5°F4.7°C 38.6°F3.7°C 93% 15.5 mph ENE24.9 kmh ENE 20.2 mph32.5 kmh 29.77 in1008.1 mb 0.01 in0.3 mm 0.00 in0.0 mm 0.05 in1.3 mm
09:04 AM 40.5°F4.7°C 38.6°F3.7°C 93% 13.0 mph ESE20.9 kmh ESE 27.4 mph44.1 kmh 29.77 in1008.1 mb 0.01 in0.3 mm 0.00 in0.0 mm 0.05 in1.3 mm
09:03 AM 40.5°F4.7°C 38.6°F3.7°C 93% 11.4 mph W18.3 kmh W 27.4 mph44.1 kmh 29.77 in1008.1 mb 0.01 in0.3 mm 0.00 in0.0 mm 0.05 in1.3 mm
09:02 AM 40.5°F4.7°C 38.6°F3.7°C 93% 13.5 mph ESE21.7 kmh ESE 33.6 mph54.1 kmh 29.77 in1008.1 mb 0.01 in0.3 mm 0.00 in0.0 mm 0.05 in1.3 mm
09:01 AM 40.5°F4.7°C 38.6°F3.7°C 93% 15.5 mph E24.9 kmh E 33.6 mph54.1 kmh 29.77 in1008.1 mb 0.01 in0.3 mm 0.00 in0.0 mm 0.05 in1.3 mm
09:00 AM 46.0°F7.8°C 43.8°F6.6°C 92% 18.6 mph E29.9 kmh E 33.6 mph54.1 kmh 29.79 in1008.8 mb 0.01 in0.3 mm 0.00 in0.0 mm 0.05 in1.3 mm
08:59 AM 46.0°F7.8°C 43.8°F6.6°C 92% 16.6 mph NE26.7 kmh NE 33.6 mph54.1 kmh 29.79 in1008.8 mb 0.01 in0.3 mm 0.00 in0.0 mm 0.05 in1.3 mm
08:58 AM 40.5°F4.7°C 38.4°F3.6°C 92% 16.1 mph NE25.9 kmh NE 33.6 mph54.1 kmh 29.79 in1008.8 mb 0.01 in0.3 mm 0.00 in0.0 mm 0.05 in1.3 mm
08:57 AM 40.5°F4.7°C 38.4°F3.6°C 92% 9.4 mph ENE15.1 kmh ENE 33.6 mph54.1 kmh 29.79 in1008.8 mb 0.01 in0.3 mm 0.00 in0.0 mm 0.05 in1.3 mm
08:56 AM 40.5°F4.7°C 38.4°F3.6°C 92% 12.5 mph NNE20.1 kmh NNE 33.6 mph54.1 kmh 29.79 in1008.8 mb 0.01 in0.3 mm 0.00 in0.0 mm 0.05 in1.3 mm
08:55 AM 40.5°F4.7°C 38.4°F3.6°C 92% 13.5 mph ENE21.7 kmh ENE 33.6 mph54.1 kmh 29.79 in1008.8 mb 0.01 in0.3 mm 0.00 in0.0 mm 0.05 in1.3 mm
08:54 AM 40.5°F4.7°C 38.4°F3.6°C 92% 27.4 mph ENE44.1 kmh ENE 33.6 mph54.1 kmh 29.79 in1008.8 mb 0.01 in0.3 mm 0.00 in0.0 mm 0.05 in1.3 mm
08:53 AM 40.5°F4.7°C 38.4°F3.6°C 92% 24.3 mph E39.1 kmh E 33.6 mph54.1 kmh 29.79 in1008.8 mb 0.01 in0.3 mm 0.00 in0.0 mm 0.05 in1.3 mm
08:52 AM 40.3°F4.6°C 38.2°F3.4°C 92% 17.6 mph ESE28.3 kmh ESE 21.7 mph34.9 kmh 29.79 in1008.8 mb 0.01 in0.3 mm 0.60 in15.2 mm 0.05 in1.3 mm
08:51 AM 40.3°F4.6°C 38.2°F3.4°C 92% 21.7 mph ESE34.9 kmh ESE 21.7 mph34.9 kmh 29.79 in1008.8 mb 0.00 in0.0 mm 0.00 in0.0 mm 0.04 in1.0 mm
08:50 AM 40.3°F4.6°C 38.2°F3.4°C 92% 13.0 mph N20.9 kmh N 20.2 mph32.5 kmh 29.79 in1008.8 mb 0.00 in0.0 mm 0.00 in0.0 mm 0.04 in1.0 mm
08:49 AM 46.0°F7.8°C 43.8°F6.6°C 92% 18.1 mph NE29.1 kmh NE 20.2 mph32.5 kmh 29.78 in1008.5 mb 0.00 in0.0 mm 0.00 in0.0 mm 0.04 in1.0 mm
08:48 AM 40.3°F4.6°C 38.2°F3.4°C 92% 1.7 mph NNE2.7 kmh NNE 18.1 mph29.1 kmh 29.78 in1008.5 mb 0.00 in0.0 mm 0.00 in0.0 mm 0.04 in1.0 mm
08:47 AM 40.3°F4.6°C 38.2°F3.4°C 92% 12.5 mph ESE20.1 kmh ESE 22.2 mph35.7 kmh 29.78 in1008.5 mb 0.00 in0.0 mm 0.00 in0.0 mm 0.04 in1.0 mm
08:46 AM 40.3°F4.6°C 38.2°F3.4°C 92% 15.0 mph E24.1 kmh E 22.2 mph35.7 kmh 29.78 in1008.5 mb 0.00 in0.0 mm 0.00 in0.0 mm 0.04 in1.0 mm
08:45 AM 40.3°F4.6°C 38.2°F3.4°C 92% 14.5 mph NE23.3 kmh NE 22.7 mph36.5 kmh 29.78 in1008.5 mb 0.00 in0.0 mm 0.00 in0.0 mm 0.04 in1.0 mm
08:44 AM 40.3°F4.6°C 38.2°F3.4°C 92% 10.4 mph NE16.7 kmh NE 22.7 mph36.5 kmh 29.78 in1008.5 mb 0.00 in0.0 mm 0.00 in0.0 mm 0.04 in1.0 mm
08:43 AM 40.3°F4.6°C 38.2°F3.4°C 92% 11.9 mph E19.2 kmh E 22.7 mph36.5 kmh 29.78 in1008.5 mb 0.00 in0.0 mm 0.00 in0.0 mm 0.04 in1.0 mm
08:42 AM 40.3°F4.6°C 38.2°F3.4°C 92% 8.9 mph ENE14.3 kmh ENE 22.7 mph36.5 kmh 29.78 in1008.5 mb 0.00 in0.0 mm 0.00 in0.0 mm 0.04 in1.0 mm
08:41 AM 40.3°F4.6°C 38.2°F3.4°C 92% 17.1 mph N27.5 kmh N 22.7 mph36.5 kmh 29.78 in1008.5 mb 0.00 in0.0 mm 0.00 in0.0 mm 0.04 in1.0 mm
08:40 AM 40.3°F4.6°C 38.2°F3.4°C 92% 14.5 mph NNE23.3 kmh NNE 22.7 mph36.5 kmh 29.78 in1008.5 mb 0.00 in0.0 mm 0.00 in0.0 mm 0.04 in1.0 mm
08:39 AM 40.3°F4.6°C 38.2°F3.4°C 92% 15.5 mph E24.9 kmh E 22.7 mph36.5 kmh 29.78 in1008.5 mb 0.00 in0.0 mm 0.00 in0.0 mm 0.04 in1.0 mm
08:38 AM 40.3°F4.6°C 38.2°F3.4°C 92% 10.4 mph ENE16.7 kmh ENE 23.3 mph37.5 kmh 29.78 in1008.5 mb 0.00 in0.0 mm 0.00 in0.0 mm 0.04 in1.0 mm
08:37 AM 40.3°F4.6°C 38.2°F3.4°C 92% 7.3 mph E11.7 kmh E 23.3 mph37.5 kmh 29.80 in1009.1 mb 0.00 in0.0 mm 0.00 in0.0 mm 0.04 in1.0 mm
08:36 AM 40.3°F4.6°C 38.2°F3.4°C 92% 19.1 mph NNE30.7 kmh NNE 23.3 mph37.5 kmh 29.80 in1009.1 mb 0.00 in0.0 mm 0.00 in0.0 mm 0.04 in1.0 mm
08:35 AM 40.3°F4.6°C 38.2°F3.4°C 92% 13.0 mph ENE20.9 kmh ENE 23.3 mph37.5 kmh 29.80 in1009.1 mb 0.00 in0.0 mm 0.00 in0.0 mm 0.04 in1.0 mm
08:34 AM 40.3°F4.6°C 38.2°F3.4°C 92% 14.0 mph NE22.5 kmh NE 23.3 mph37.5 kmh 29.80 in1009.1 mb 0.00 in0.0 mm 0.00 in0.0 mm 0.04 in1.0 mm
08:33 AM 40.3°F4.6°C 38.2°F3.4°C 92% 11.4 mph NE18.3 kmh NE 23.3 mph37.5 kmh 29.80 in1009.1 mb 0.00 in0.0 mm 0.00 in0.0 mm 0.04 in1.0 mm
08:32 AM 40.3°F4.6°C 38.2°F3.4°C 92% 11.9 mph ENE19.2 kmh ENE 23.3 mph37.5 kmh 29.80 in1009.1 mb 0.00 in0.0 mm 0.00 in0.0 mm 0.04 in1.0 mm
08:31 AM 40.3°F4.6°C 38.2°F3.4°C 92% 19.1 mph WNW30.7 kmh WNW 23.3 mph37.5 kmh 29.80 in1009.1 mb 0.00 in0.0 mm 0.00 in0.0 mm 0.04 in1.0 mm
08:30 AM 40.3°F4.6°C 37.9°F3.3°C 91% 19.7 mph E31.7 kmh E 23.3 mph37.5 kmh 29.80 in1009.1 mb 0.00 in0.0 mm 0.00 in0.0 mm 0.04 in1.0 mm
08:29 AM 40.3°F4.6°C 37.9°F3.3°C 91% 15.5 mph NNE24.9 kmh NNE 23.3 mph37.5 kmh 29.80 in1009.1 mb 0.00 in0.0 mm 0.00 in0.0 mm 0.04 in1.0 mm
08:28 AM 40.3°F4.6°C 37.9°F3.3°C 91% 23.3 mph NNE37.5 kmh NNE 23.3 mph37.5 kmh 29.80 in1009.1 mb 0.00 in0.0 mm 0.00 in0.0 mm 0.04 in1.0 mm
08:27 AM 40.3°F4.6°C 37.9°F3.3°C 91% 17.1 mph ENE27.5 kmh ENE 22.2 mph35.7 kmh 29.80 in1009.1 mb 0.00 in0.0 mm 0.00 in0.0 mm 0.04 in1.0 mm
08:26 AM 40.3°F4.6°C 37.9°F3.3°C 91% 18.1 mph N29.1 kmh N 23.8 mph38.3 kmh 29.80 in1009.1 mb 0.00 in0.0 mm 0.00 in0.0 mm 0.04 in1.0 mm
08:25 AM 40.3°F4.6°C 37.9°F3.3°C 91% 17.1 mph NNE27.5 kmh NNE 23.8 mph38.3 kmh 29.80 in1009.1 mb 0.00 in0.0 mm 0.00 in0.0 mm 0.04 in1.0 mm
08:24 AM 40.3°F4.6°C 37.9°F3.3°C 91% 14.0 mph N22.5 kmh N 23.8 mph38.3 kmh 29.80 in1009.1 mb 0.00 in0.0 mm 0.00 in0.0 mm 0.04 in1.0 mm
08:23 AM 40.3°F4.6°C 37.9°F3.3°C 91% 15.5 mph E24.9 kmh E 24.8 mph39.9 kmh 29.80 in1009.1 mb 0.00 in0.0 mm 0.00 in0.0 mm 0.04 in1.0 mm
08:22 AM 40.3°F4.6°C 37.9°F3.3°C 91% 20.2 mph ENE32.5 kmh ENE 24.8 mph39.9 kmh 29.80 in1009.1 mb 0.00 in0.0 mm 0.00 in0.0 mm 0.04 in1.0 mm
08:21 AM 40.3°F4.6°C 37.9°F3.3°C 91% 13.5 mph SE21.7 kmh SE 24.8 mph39.9 kmh 29.80 in1009.1 mb 0.00 in0.0 mm 0.00 in0.0 mm 0.04 in1.0 mm
08:20 AM 40.3°F4.6°C 37.9°F3.3°C 91% 10.9 mph NE17.5 kmh NE 27.4 mph44.1 kmh 29.80 in1009.1 mb 0.00 in0.0 mm 0.00 in0.0 mm 0.04 in1.0 mm
08:19 AM 40.3°F4.6°C 37.9°F3.3°C 91% 16.6 mph ESE26.7 kmh ESE 27.4 mph44.1 kmh 29.80 in1009.1 mb 0.00 in0.0 mm 0.00 in0.0 mm 0.04 in1.0 mm
08:18 AM 40.3°F4.6°C 37.6°F3.1°C 90% 22.2 mph NNE35.7 kmh NNE 27.4 mph44.1 kmh 29.80 in1009.1 mb 0.00 in0.0 mm 0.00 in0.0 mm 0.04 in1.0 mm
08:17 AM 40.3°F4.6°C 37.6°F3.1°C 90% 20.2 mph NNE32.5 kmh NNE 27.4 mph44.1 kmh 29.80 in1009.1 mb 0.00 in0.0 mm 0.00 in0.0 mm 0.04 in1.0 mm
08:16 AM 40.3°F4.6°C 37.6°F3.1°C 90% 10.4 mph ENE16.7 kmh ENE 27.4 mph44.1 kmh 29.80 in1009.1 mb 0.00 in0.0 mm 0.00 in0.0 mm 0.04 in1.0 mm
08:15 AM 40.3°F4.6°C 37.3°F2.9°C 89% 21.7 mph ESE34.9 kmh ESE 27.4 mph44.1 kmh 29.80 in1009.1 mb 0.00 in0.0 mm 0.00 in0.0 mm 0.04 in1.0 mm
08:14 AM 40.3°F4.6°C 37.3°F2.9°C 89% 21.2 mph ESE34.1 kmh ESE 27.4 mph44.1 kmh 29.80 in1009.1 mb 0.00 in0.0 mm 0.00 in0.0 mm 0.04 in1.0 mm
08:13 AM 40.3°F4.6°C 37.3°F2.9°C 89% 22.2 mph NE35.7 kmh NE 27.4 mph44.1 kmh 29.80 in1009.1 mb 0.00 in0.0 mm 0.00 in0.0 mm 0.04 in1.0 mm
08:12 AM 40.3°F4.6°C 37.3°F2.9°C 89% 20.7 mph NE33.3 kmh NE 27.4 mph44.1 kmh 29.79 in1008.8 mb 0.00 in0.0 mm 0.00 in0.0 mm 0.04 in1.0 mm
08:11 AM 40.3°F4.6°C 37.3°F2.9°C 89% 14.5 mph ENE23.3 kmh ENE 27.4 mph44.1 kmh 29.79 in1008.8 mb 0.00 in0.0 mm 0.00 in0.0 mm 0.04 in1.0 mm
08:10 AM 40.3°F4.6°C 37.3°F2.9°C 89% 14.0 mph NNE22.5 kmh NNE 19.7 mph31.7 kmh 29.79 in1008.8 mb 0.00 in0.0 mm 0.00 in0.0 mm 0.04 in1.0 mm
08:09 AM 40.3°F4.6°C 37.3°F2.9°C 89% 17.6 mph E28.3 kmh E 25.3 mph40.7 kmh 29.79 in1008.8 mb 0.00 in0.0 mm 0.00 in0.0 mm 0.04 in1.0 mm
08:08 AM 40.3°F4.6°C 37.3°F2.9°C 89% 11.9 mph E19.2 kmh E 25.3 mph40.7 kmh 29.79 in1008.8 mb 0.00 in0.0 mm 0.00 in0.0 mm 0.04 in1.0 mm
08:07 AM 40.3°F4.6°C 37.3°F2.9°C 89% 14.0 mph ESE22.5 kmh ESE 27.4 mph44.1 kmh 29.79 in1008.8 mb 0.00 in0.0 mm 0.00 in0.0 mm 0.04 in1.0 mm
08:06 AM 40.3°F4.6°C 37.6°F3.1°C 90% 13.5 mph NE21.7 kmh NE 27.4 mph44.1 kmh 29.79 in1008.8 mb 0.00 in0.0 mm 0.00 in0.0 mm 0.04 in1.0 mm
08:05 AM 40.3°F4.6°C 37.6°F3.1°C 90% 17.6 mph ENE28.3 kmh ENE 27.4 mph44.1 kmh 29.79 in1008.8 mb 0.00 in0.0 mm 0.00 in0.0 mm 0.04 in1.0 mm
08:04 AM 40.3°F4.6°C 37.6°F3.1°C 90% 1.7 mph NNE2.7 kmh NNE 27.4 mph44.1 kmh 29.79 in1008.8 mb 0.00 in0.0 mm 0.00 in0.0 mm 0.04 in1.0 mm
08:03 AM 40.3°F4.6°C 37.6°F3.1°C 90% 17.6 mph NE28.3 kmh NE 27.4 mph44.1 kmh 29.79 in1008.8 mb 0.00 in0.0 mm 0.00 in0.0 mm 0.04 in1.0 mm
08:02 AM 40.5°F4.7°C 37.8°F3.2°C 90% 13.0 mph NNE20.9 kmh NNE 27.4 mph44.1 kmh 29.79 in1008.8 mb 0.00 in0.0 mm 0.00 in0.0 mm 0.04 in1.0 mm
08:01 AM 40.5°F4.7°C 37.8°F3.2°C 90% 14.0 mph ENE22.5 kmh ENE 27.4 mph44.1 kmh 29.79 in1008.8 mb 0.00 in0.0 mm 0.00 in0.0 mm 0.04 in1.0 mm
08:00 AM 40.5°F4.7°C 37.8°F3.2°C 90% 11.9 mph ESE19.2 kmh ESE 27.4 mph44.1 kmh 29.79 in1008.8 mb 0.00 in0.0 mm 0.00 in0.0 mm 0.04 in1.0 mm
07:59 AM 40.5°F4.7°C 37.8°F3.2°C 90% 25.3 mph ENE40.7 kmh ENE 27.4 mph44.1 kmh 29.79 in1008.8 mb 0.00 in0.0 mm 0.00 in0.0 mm 0.04 in1.0 mm
07:58 AM 40.5°F4.7°C 37.8°F3.2°C 90% 16.6 mph NE26.7 kmh NE 27.4 mph44.1 kmh 29.79 in1008.8 mb 0.00 in0.0 mm 0.00 in0.0 mm 0.04 in1.0 mm
07:57 AM 40.5°F4.7°C 37.8°F3.2°C 90% 27.4 mph NE44.1 kmh NE 27.4 mph44.1 kmh 29.79 in1008.8 mb 0.00 in0.0 mm 0.00 in0.0 mm 0.04 in1.0 mm
07:56 AM 40.5°F4.7°C 37.8°F3.2°C 90% 25.8 mph NE41.5 kmh NE 27.4 mph44.1 kmh 29.79 in1008.8 mb 0.00 in0.0 mm 0.00 in0.0 mm 0.04 in1.0 mm
07:55 AM 40.5°F4.7°C 37.8°F3.2°C 90% 18.1 mph E29.1 kmh E 27.4 mph44.1 kmh 29.79 in1008.8 mb 0.00 in0.0 mm 0.00 in0.0 mm 0.04 in1.0 mm
07:54 AM 40.6°F4.8°C 37.9°F3.3°C 90% 23.8 mph WNW38.3 kmh WNW 27.4 mph44.1 kmh 29.79 in1008.8 mb 0.00 in0.0 mm 0.00 in0.0 mm 0.04 in1.0 mm
07:53 AM 40.6°F4.8°C 37.9°F3.3°C 90% 25.8 mph ENE41.5 kmh ENE 27.4 mph44.1 kmh 29.79 in1008.8 mb 0.00 in0.0 mm 0.00 in0.0 mm 0.04 in1.0 mm
07:52 AM 40.6°F4.8°C 37.9°F3.3°C 90% 9.9 mph E15.9 kmh E 24.8 mph39.9 kmh 29.79 in1008.8 mb 0.00 in0.0 mm 0.00 in0.0 mm 0.04 in1.0 mm
07:51 AM 40.6°F4.8°C 37.9°F3.3°C 90% 21.2 mph WNW34.1 kmh WNW 24.8 mph39.9 kmh 29.79 in1008.8 mb 0.00 in0.0 mm 0.00 in0.0 mm 0.04 in1.0 mm
07:50 AM 45.8°F7.7°C 43.0°F6.1°C 90% 12.5 mph ENE20.1 kmh ENE 24.8 mph39.9 kmh 29.79 in1008.8 mb 0.00 in0.0 mm 0.00 in0.0 mm 0.04 in1.0 mm
07:49 AM 40.8°F4.9°C 38.1°F3.4°C 90% 24.8 mph NE39.9 kmh NE 24.8 mph39.9 kmh 29.79 in1008.8 mb 0.00 in0.0 mm 0.00 in0.0 mm 0.04 in1.0 mm
07:48 AM 40.8°F4.9°C 38.1°F3.4°C 90% 15.5 mph E24.9 kmh E 21.2 mph34.1 kmh 29.79 in1008.8 mb 0.00 in0.0 mm 0.00 in0.0 mm 0.04 in1.0 mm
07:47 AM 40.8°F4.9°C 38.1°F3.4°C 90% 21.2 mph NE34.1 kmh NE 21.2 mph34.1 kmh 29.79 in1008.8 mb 0.00 in0.0 mm 0.00 in0.0 mm 0.04 in1.0 mm
07:46 AM 40.8°F4.9°C 38.1°F3.4°C 90% 14.0 mph E22.5 kmh E 20.2 mph32.5 kmh 29.79 in1008.8 mb 0.00 in0.0 mm 0.00 in0.0 mm 0.04 in1.0 mm
07:45 AM 40.8°F4.9°C 38.1°F3.4°C 90% 10.4 mph NE16.7 kmh NE 20.2 mph32.5 kmh 29.79 in1008.8 mb 0.00 in0.0 mm 0.00 in0.0 mm 0.04 in1.0 mm
07:44 AM 40.8°F4.9°C 38.1°F3.4°C 90% 20.2 mph E32.5 kmh E 20.2 mph32.5 kmh 29.79 in1008.8 mb 0.00 in0.0 mm 0.00 in0.0 mm 0.04 in1.0 mm
07:43 AM 40.8°F4.9°C 38.1°F3.4°C 90% 9.9 mph E15.9 kmh E 21.2 mph34.1 kmh 29.79 in1008.8 mb 0.00 in0.0 mm 0.00 in0.0 mm 0.04 in1.0 mm
07:42 AM 40.8°F4.9°C 38.4°F3.6°C 91% 20.2 mph ENE32.5 kmh ENE 21.2 mph34.1 kmh 29.79 in1008.8 mb 0.00 in0.0 mm 0.00 in0.0 mm 0.04 in1.0 mm
07:41 AM 40.8°F4.9°C 38.4°F3.6°C 91% 12.5 mph NE20.1 kmh NE 21.2 mph34.1 kmh 29.79 in1008.8 mb 0.01 in0.3 mm 0.00 in0.0 mm 0.04 in1.0 mm
07:40 AM 40.8°F4.9°C 38.4°F3.6°C 91% 15.0 mph NE24.1 kmh NE 21.2 mph34.1 kmh 29.79 in1008.8 mb 0.01 in0.3 mm 0.00 in0.0 mm 0.04 in1.0 mm
07:39 AM 40.8°F4.9°C 38.4°F3.6°C 91% 7.3 mph ENE11.7 kmh ENE 21.2 mph34.1 kmh 29.79 in1008.8 mb 0.01 in0.3 mm 0.00 in0.0 mm 0.04 in1.0 mm
07:38 AM 40.8°F4.9°C 38.1°F3.4°C 90% 9.9 mph E15.9 kmh E 21.2 mph34.1 kmh 29.80 in1009.1 mb 0.01 in0.3 mm 0.00 in0.0 mm 0.04 in1.0 mm
07:37 AM 40.8°F4.9°C 38.1°F3.4°C 90% 14.0 mph NE22.5 kmh NE 21.2 mph34.1 kmh 29.80 in1009.1 mb 0.01 in0.3 mm 0.00 in0.0 mm 0.04 in1.0 mm
07:36 AM 40.8°F4.9°C 38.1°F3.4°C 90% 15.5 mph E24.9 kmh E 26.9 mph43.3 kmh 29.80 in1009.1 mb 0.01 in0.3 mm 0.00 in0.0 mm 0.04 in1.0 mm
07:35 AM 40.8°F4.9°C 38.1°F3.4°C 90% 14.0 mph W22.5 kmh W 26.9 mph43.3 kmh 29.80 in1009.1 mb 0.01 in0.3 mm 0.00 in0.0 mm 0.04 in1.0 mm
07:34 AM 40.8°F4.9°C 38.4°F3.6°C 91% 11.4 mph ENE18.3 kmh ENE 26.9 mph43.3 kmh 29.80 in1009.1 mb 0.01 in0.3 mm 0.00 in0.0 mm 0.04 in1.0 mm
07:33 AM 40.8°F4.9°C 38.4°F3.6°C 91% 18.6 mph ENE29.9 kmh ENE 26.9 mph43.3 kmh 29.80 in1009.1 mb 0.01 in0.3 mm 0.00 in0.0 mm 0.04 in1.0 mm
07:32 AM 41.0°F5.0°C 38.6°F3.7°C 91% 20.7 mph ESE33.3 kmh ESE 26.9 mph43.3 kmh 29.80 in1009.1 mb 0.01 in0.3 mm 0.00 in0.0 mm 0.04 in1.0 mm
07:31 AM 41.0°F5.0°C 38.6°F3.7°C 91% 17.1 mph ESE27.5 kmh ESE 26.9 mph43.3 kmh 29.80 in1009.1 mb 0.01 in0.3 mm 0.00 in0.0 mm 0.04 in1.0 mm
07:30 AM 41.0°F5.0°C 38.6°F3.7°C 91% 14.0 mph NE22.5 kmh NE 26.9 mph43.3 kmh 29.80 in1009.1 mb 0.01 in0.3 mm 0.00 in0.0 mm 0.04 in1.0 mm
07:29 AM 41.0°F5.0°C 38.6°F3.7°C 91% 10.9 mph ENE17.5 kmh ENE 26.9 mph43.3 kmh 29.80 in1009.1 mb 0.01 in0.3 mm 0.00 in0.0 mm 0.04 in1.0 mm
07:28 AM 41.0°F5.0°C 38.6°F3.7°C 91% 13.0 mph E20.9 kmh E 26.9 mph43.3 kmh 29.80 in1009.1 mb 0.01 in0.3 mm 0.00 in0.0 mm 0.04 in1.0 mm
07:27 AM 41.0°F5.0°C 38.6°F3.7°C 91% 10.9 mph E17.5 kmh E 26.9 mph43.3 kmh 29.80 in1009.1 mb 0.01 in0.3 mm 0.00 in0.0 mm 0.04 in1.0 mm
07:26 AM 41.0°F5.0°C 38.6°F3.7°C 91% 26.9 mph S43.3 kmh S 26.9 mph43.3 kmh 29.80 in1009.1 mb 0.01 in0.3 mm 0.00 in0.0 mm 0.04 in1.0 mm
07:25 AM 41.0°F5.0°C 38.6°F3.7°C 91% 18.1 mph E29.1 kmh E 25.3 mph40.7 kmh 29.79 in1008.8 mb 0.01 in0.3 mm 0.00 in0.0 mm 0.04 in1.0 mm
07:24 AM 41.0°F5.0°C 38.6°F3.7°C 91% 16.6 mph NE26.7 kmh NE 25.3 mph40.7 kmh 29.79 in1008.8 mb 0.01 in0.3 mm 0.00 in0.0 mm 0.04 in1.0 mm
07:23 AM 41.0°F5.0°C 38.6°F3.7°C 91% 22.7 mph NNE36.5 kmh NNE 33.0 mph53.1 kmh 29.79 in1008.8 mb 0.01 in0.3 mm 0.00 in0.0 mm 0.04 in1.0 mm
07:22 AM 41.0°F5.0°C 38.6°F3.7°C 91% 11.9 mph NNE19.2 kmh NNE 33.0 mph53.1 kmh 29.79 in1008.8 mb 0.01 in0.3 mm 0.00 in0.0 mm 0.04 in1.0 mm
07:21 AM 41.0°F5.0°C 38.6°F3.7°C 91% 14.0 mph NE22.5 kmh NE 33.0 mph53.1 kmh 29.79 in1008.8 mb 0.01 in0.3 mm 0.00 in0.0 mm 0.04 in1.0 mm
07:20 AM 41.0°F5.0°C 38.6°F3.7°C 91% 12.5 mph ESE20.1 kmh ESE 33.0 mph53.1 kmh 29.79 in1008.8 mb 0.01 in0.3 mm 0.00 in0.0 mm 0.04 in1.0 mm
07:19 AM 41.0°F5.0°C 38.6°F3.7°C 91% 8.3 mph E13.4 kmh E 33.0 mph53.1 kmh 29.79 in1008.8 mb 0.01 in0.3 mm 0.00 in0.0 mm 0.04 in1.0 mm
07:18 AM 41.0°F5.0°C 38.6°F3.7°C 91% 17.6 mph NE28.3 kmh NE 33.0 mph53.1 kmh 29.79 in1008.8 mb 0.01 in0.3 mm 0.00 in0.0 mm 0.04 in1.0 mm
07:17 AM 41.0°F5.0°C 38.6°F3.7°C 91% 8.9 mph E14.3 kmh E 33.0 mph53.1 kmh 29.79 in1008.8 mb 0.01 in0.3 mm 0.00 in0.0 mm 0.04 in1.0 mm
07:16 AM 41.0°F5.0°C 38.6°F3.7°C 91% 19.1 mph NE30.7 kmh NE 33.0 mph53.1 kmh 29.79 in1008.8 mb 0.01 in0.3 mm 0.00 in0.0 mm 0.04 in1.0 mm
07:15 AM 41.0°F5.0°C 38.6°F3.7°C 91% 17.6 mph ENE28.3 kmh ENE 33.0 mph53.1 kmh 29.79 in1008.8 mb 0.01 in0.3 mm 0.00 in0.0 mm 0.04 in1.0 mm
07:14 AM 41.0°F5.0°C 38.9°F3.8°C 92% 18.1 mph NNE29.1 kmh NNE 33.0 mph53.1 kmh 29.79 in1008.8 mb 0.01 in0.3 mm 0.00 in0.0 mm 0.04 in1.0 mm
07:13 AM 41.0°F5.0°C 38.9°F3.8°C 92% 15.5 mph E24.9 kmh E 25.8 mph41.5 kmh 29.79 in1008.8 mb 0.01 in0.3 mm 0.00 in0.0 mm 0.04 in1.0 mm
07:12 AM 41.0°F5.0°C 38.9°F3.8°C 92% 18.1 mph NE29.1 kmh NE 25.8 mph41.5 kmh 29.78 in1008.5 mb 0.01 in0.3 mm 0.00 in0.0 mm 0.04 in1.0 mm
07:11 AM 41.0°F5.0°C 38.9°F3.8°C 92% 15.5 mph NNE24.9 kmh NNE 25.8 mph41.5 kmh 29.78 in1008.5 mb 0.01 in0.3 mm 0.00 in0.0 mm 0.04 in1.0 mm
07:10 AM 41.0°F5.0°C 38.9°F3.8°C 92% Calm Calm 25.8 mph41.5 kmh 29.78 in1008.5 mb 0.01 in0.3 mm 0.00 in0.0 mm 0.04 in1.0 mm
07:09 AM 41.0°F5.0°C 38.9°F3.8°C 92% 15.0 mph N24.1 kmh N 25.8 mph41.5 kmh 29.78 in1008.5 mb 0.01 in0.3 mm 0.00 in0.0 mm 0.04 in1.0 mm
07:08 AM 41.0°F5.0°C 38.9°F3.8°C 92% 16.6 mph N26.7 kmh N 25.8 mph41.5 kmh 29.78 in1008.5 mb 0.01 in0.3 mm 0.00 in0.0 mm 0.04 in1.0 mm
07:07 AM 41.0°F5.0°C 38.9°F3.8°C 92% 18.1 mph E29.1 kmh E 25.8 mph41.5 kmh 29.78 in1008.5 mb 0.01 in0.3 mm 0.00 in0.0 mm 0.04 in1.0 mm
07:06 AM 41.0°F5.0°C 38.9°F3.8°C 92% 11.9 mph E19.2 kmh E 23.3 mph37.5 kmh 29.78 in1008.5 mb 0.01 in0.3 mm 0.00 in0.0 mm 0.04 in1.0 mm
07:05 AM 41.0°F5.0°C 38.9°F3.8°C 92% 17.6 mph ESE28.3 kmh ESE 23.3 mph37.5 kmh 29.78 in1008.5 mb 0.01 in0.3 mm 0.00 in0.0 mm 0.04 in1.0 mm
07:04 AM 41.2°F5.1°C 39.1°F3.9°C 92% 6.3 mph E10.1 kmh E 23.3 mph37.5 kmh 29.78 in1008.5 mb 0.01 in0.3 mm 0.00 in0.0 mm 0.04 in1.0 mm
07:03 AM 41.2°F5.1°C 39.1°F3.9°C 92% 1.1 mph E1.8 kmh E 23.3 mph37.5 kmh 29.78 in1008.5 mb 0.01 in0.3 mm 0.00 in0.0 mm 0.04 in1.0 mm
07:02 AM 41.2°F5.1°C 39.1°F3.9°C 92% 23.3 mph E37.5 kmh E 33.6 mph54.1 kmh 29.78 in1008.5 mb 0.01 in0.3 mm 0.00 in0.0 mm 0.04 in1.0 mm
07:01 AM 41.2°F5.1°C 39.1°F3.9°C 92% 10.4 mph NE16.7 kmh NE 33.6 mph54.1 kmh 29.78 in1008.5 mb 0.01 in0.3 mm 0.00 in0.0 mm 0.04 in1.0 mm
07:00 AM 41.2°F5.1°C 39.1°F3.9°C 92% 4.7 mph ENE7.6 kmh ENE 33.6 mph54.1 kmh 29.79 in1008.8 mb 0.01 in0.3 mm 0.00 in0.0 mm 0.04 in1.0 mm
06:59 AM 41.2°F5.1°C 39.3°F4.1°C 93% 18.1 mph E29.1 kmh E 33.6 mph54.1 kmh 29.79 in1008.8 mb 0.01 in0.3 mm 0.00 in0.0 mm 0.04 in1.0 mm
06:58 AM 41.2°F5.1°C 39.3°F4.1°C 93% 13.5 mph NE21.7 kmh NE 33.6 mph54.1 kmh 29.79 in1008.8 mb 0.01 in0.3 mm 0.00 in0.0 mm 0.04 in1.0 mm
06:57 AM 41.2°F5.1°C 39.3°F4.1°C 93% 18.1 mph NNE29.1 kmh NNE 33.6 mph54.1 kmh 29.79 in1008.8 mb 0.01 in0.3 mm 0.00 in0.0 mm 0.04 in1.0 mm
06:56 AM 41.2°F5.1°C 39.3°F4.1°C 93% 14.0 mph NNE22.5 kmh NNE 33.6 mph54.1 kmh 29.79 in1008.8 mb 0.01 in0.3 mm 0.00 in0.0 mm 0.04 in1.0 mm
06:55 AM 41.2°F5.1°C 39.3°F4.1°C 93% 15.0 mph ESE24.1 kmh ESE 33.6 mph54.1 kmh 29.79 in1008.8 mb 0.01 in0.3 mm 0.00 in0.0 mm 0.04 in1.0 mm
06:54 AM 41.4°F5.2°C 39.3°F4.1°C 92% 4.7 mph NNE7.6 kmh NNE 33.6 mph54.1 kmh 29.79 in1008.8 mb 0.01 in0.3 mm 0.00 in0.0 mm 0.04 in1.0 mm
06:53 AM 41.4°F5.2°C 39.3°F4.1°C 92% 4.2 mph ESE6.8 kmh ESE 33.6 mph54.1 kmh 29.79 in1008.8 mb 0.01 in0.3 mm 0.00 in0.0 mm 0.04 in1.0 mm
06:52 AM 41.4°F5.2°C 39.3°F4.1°C 92% 33.6 mph WNW54.1 kmh WNW 33.6 mph54.1 kmh 29.79 in1008.8 mb 0.01 in0.3 mm 0.00 in0.0 mm 0.04 in1.0 mm
06:51 AM 41.4°F5.2°C 39.3°F4.1°C 92% 11.4 mph NE18.3 kmh NE 25.3 mph40.7 kmh 29.79 in1008.8 mb 0.01 in0.3 mm 0.00 in0.0 mm 0.04 in1.0 mm
06:50 AM 41.4°F5.2°C 39.3°F4.1°C 92% 12.5 mph ENE20.1 kmh ENE 25.3 mph40.7 kmh 29.79 in1008.8 mb 0.01 in0.3 mm 0.00 in0.0 mm 0.04 in1.0 mm
06:49 AM 41.4°F5.2°C 39.3°F4.1°C 92% 9.9 mph NE15.9 kmh NE 25.3 mph40.7 kmh 29.79 in1008.8 mb 0.01 in0.3 mm 0.00 in0.0 mm 0.04 in1.0 mm
06:48 AM 41.4°F5.2°C 39.3°F4.1°C 92% 10.4 mph NNE16.7 kmh NNE 25.3 mph40.7 kmh 29.78 in1008.5 mb 0.01 in0.3 mm 0.00 in0.0 mm 0.04 in1.0 mm
06:47 AM 41.5°F5.3°C 39.4°F4.1°C 92% 13.5 mph NE21.7 kmh NE 25.3 mph40.7 kmh 29.78 in1008.5 mb 0.01 in0.3 mm 0.00 in0.0 mm 0.04 in1.0 mm
06:46 AM 41.5°F5.3°C 39.4°F4.1°C 92% 13.5 mph E21.7 kmh E 25.3 mph40.7 kmh 29.78 in1008.5 mb 0.01 in0.3 mm 0.00 in0.0 mm 0.04 in1.0 mm
06:45 AM 41.5°F5.3°C 39.4°F4.1°C 92% 13.5 mph NNE21.7 kmh NNE 25.3 mph40.7 kmh 29.78 in1008.5 mb 0.01 in0.3 mm 0.00 in0.0 mm 0.04 in1.0 mm
06:44 AM 41.7°F5.4°C 39.3°F4.1°C 91% 16.6 mph NE26.7 kmh NE 25.3 mph40.7 kmh 29.78 in1008.5 mb 0.01 in0.3 mm 0.00 in0.0 mm 0.04 in1.0 mm
06:43 AM 41.7°F5.4°C 39.3°F4.1°C 91% 10.4 mph SE16.7 kmh SE 25.3 mph40.7 kmh 29.78 in1008.5 mb 0.01 in0.3 mm 0.00 in0.0 mm 0.04 in1.0 mm
06:42 AM 41.7°F5.4°C 39.3°F4.1°C 91% 19.1 mph NNE30.7 kmh NNE 25.3 mph40.7 kmh 29.78 in1008.5 mb 0.01 in0.3 mm 0.60 in15.2 mm 0.04 in1.0 mm
06:41 AM 41.7°F5.4°C 39.3°F4.1°C 91% 11.9 mph ESE19.2 kmh ESE 25.3 mph40.7 kmh 29.78 in1008.5 mb 0.00 in0.0 mm 0.00 in0.0 mm 0.03 in0.8 mm
06:40 AM 41.7°F5.4°C 39.3°F4.1°C 91% 15.5 mph ENE24.9 kmh ENE 25.3 mph40.7 kmh 29.78 in1008.5 mb 0.00 in0.0 mm 0.00 in0.0 mm 0.03 in0.8 mm
06:39 AM 41.7°F5.4°C 39.6°F4.2°C 92% 23.3 mph ESE37.5 kmh ESE 25.3 mph40.7 kmh 29.78 in1008.5 mb 0.00 in0.0 mm 0.00 in0.0 mm 0.03 in0.8 mm
06:38 AM 41.7°F5.4°C 39.6°F4.2°C 92% 23.8 mph NNE38.3 kmh NNE 25.3 mph40.7 kmh 29.78 in1008.5 mb 0.00 in0.0 mm 0.00 in0.0 mm 0.03 in0.8 mm
06:37 AM 41.7°F5.4°C 39.6°F4.2°C 92% 9.4 mph E15.1 kmh E 25.3 mph40.7 kmh 29.78 in1008.5 mb 0.00 in0.0 mm 0.00 in0.0 mm 0.03 in0.8 mm
06:36 AM 41.7°F5.4°C 39.6°F4.2°C 92% 7.8 mph ESE12.6 kmh ESE 25.3 mph40.7 kmh 29.77 in1008.1 mb 0.00 in0.0 mm 0.00 in0.0 mm 0.03 in0.8 mm
06:35 AM 41.7°F5.4°C 39.6°F4.2°C 92% 9.4 mph ESE15.1 kmh ESE 25.3 mph40.7 kmh 29.77 in1008.1 mb 0.00 in0.0 mm 0.00 in0.0 mm 0.03 in0.8 mm
06:34 AM 41.7°F5.4°C 39.6°F4.2°C 92% 20.2 mph NNE32.5 kmh NNE 25.3 mph40.7 kmh 29.77 in1008.1 mb 0.00 in0.0 mm 0.00 in0.0 mm 0.03 in0.8 mm
06:33 AM 41.7°F5.4°C 39.6°F4.2°C 92% 17.1 mph NE27.5 kmh NE 25.3 mph40.7 kmh 29.77 in1008.1 mb 0.00 in0.0 mm 0.00 in0.0 mm 0.03 in0.8 mm
06:32 AM 41.7°F5.4°C 39.6°F4.2°C 92% 9.9 mph ESE15.9 kmh ESE 20.7 mph33.3 kmh 29.77 in1008.1 mb 0.00 in0.0 mm 0.00 in0.0 mm 0.03 in0.8 mm
06:31 AM 41.9°F5.5°C 39.7°F4.3°C 92% 13.0 mph NE20.9 kmh NE 20.7 mph33.3 kmh 29.77 in1008.1 mb 0.00 in0.0 mm 0.00 in0.0 mm 0.03 in0.8 mm
06:30 AM 41.9°F5.5°C 39.7°F4.3°C 92% 16.6 mph NE26.7 kmh NE 20.7 mph33.3 kmh 29.77 in1008.1 mb 0.00 in0.0 mm 0.00 in0.0 mm 0.03 in0.8 mm
06:29 AM 41.9°F5.5°C 39.7°F4.3°C 92% 18.6 mph NE29.9 kmh NE 21.7 mph34.9 kmh 29.77 in1008.1 mb 0.00 in0.0 mm 0.00 in0.0 mm 0.03 in0.8 mm
06:28 AM 41.9°F5.5°C 39.7°F4.3°C 92% 11.4 mph ESE18.3 kmh ESE 21.7 mph34.9 kmh 29.77 in1008.1 mb 0.00 in0.0 mm 0.00 in0.0 mm 0.03 in0.8 mm
06:27 AM 41.9°F5.5°C 39.7°F4.3°C 92% 14.5 mph E23.3 kmh E 23.3 mph37.5 kmh 29.77 in1008.1 mb 0.00 in0.0 mm 0.00 in0.0 mm 0.03 in0.8 mm
06:26 AM 41.9°F5.5°C 39.7°F4.3°C 92% 18.6 mph E29.9 kmh E 23.3 mph37.5 kmh 29.77 in1008.1 mb 0.00 in0.0 mm 0.00 in0.0 mm 0.03 in0.8 mm
06:25 AM 41.9°F5.5°C 39.7°F4.3°C 92% Calm Calm 23.3 mph37.5 kmh 29.77 in1008.1 mb 0.00 in0.0 mm 0.00 in0.0 mm 0.03 in0.8 mm
06:24 AM 41.9°F5.5°C 39.7°F4.3°C 92% 20.7 mph NNE33.3 kmh NNE 23.3 mph37.5 kmh 29.77 in1008.1 mb 0.00 in0.0 mm 0.00 in0.0 mm 0.03 in0.8 mm
06:23 AM 41.9°F5.5°C 39.7°F4.3°C 92% 18.6 mph NNW29.9 kmh NNW 23.3 mph37.5 kmh 29.77 in1008.1 mb 0.00 in0.0 mm 0.00 in0.0 mm 0.03 in0.8 mm
06:22 AM 42.1°F5.6°C 39.9°F4.4°C 92% 12.5 mph ENE20.1 kmh ENE 23.3 mph37.5 kmh 29.77 in1008.1 mb 0.00 in0.0 mm 0.00 in0.0 mm 0.03 in0.8 mm
06:21 AM 42.1°F5.6°C 39.9°F4.4°C 92% 16.6 mph NE26.7 kmh NE 26.9 mph43.3 kmh 29.77 in1008.1 mb 0.00 in0.0 mm 0.00 in0.0 mm 0.03 in0.8 mm
06:20 AM 42.1°F5.6°C 39.9°F4.4°C 92% 14.5 mph NE23.3 kmh NE 26.9 mph43.3 kmh 29.77 in1008.1 mb 0.00 in0.0 mm 0.00 in0.0 mm 0.03 in0.8 mm
06:19 AM 42.1°F5.6°C 39.9°F4.4°C 92% 21.7 mph NNE34.9 kmh NNE 26.9 mph43.3 kmh 29.77 in1008.1 mb 0.00 in0.0 mm 0.00 in0.0 mm 0.03 in0.8 mm
06:18 AM 42.1°F5.6°C 39.9°F4.4°C 92% 20.2 mph ENE32.5 kmh ENE 26.9 mph43.3 kmh 29.77 in1008.1 mb 0.00 in0.0 mm 0.00 in0.0 mm 0.03 in0.8 mm
06:17 AM 42.1°F5.6°C 39.9°F4.4°C 92% 21.2 mph NE34.1 kmh NE 26.9 mph43.3 kmh 29.77 in1008.1 mb 0.00 in0.0 mm 0.00 in0.0 mm 0.03 in0.8 mm
06:16 AM 42.1°F5.6°C 39.9°F4.4°C 92% 10.9 mph E17.5 kmh E 26.9 mph43.3 kmh 29.77 in1008.1 mb 0.01 in0.3 mm 0.00 in0.0 mm 0.03 in0.8 mm
06:15 AM 42.1°F5.6°C 39.9°F4.4°C 92% 21.2 mph E34.1 kmh E 26.9 mph43.3 kmh 29.77 in1008.1 mb 0.01 in0.3 mm 0.00 in0.0 mm 0.03 in0.8 mm
06:14 AM 42.1°F5.6°C 39.9°F4.4°C 92% 10.4 mph E16.7 kmh E 26.9 mph43.3 kmh 29.77 in1008.1 mb 0.01 in0.3 mm 0.00 in0.0 mm 0.03 in0.8 mm
06:13 AM 42.1°F5.6°C 39.9°F4.4°C 92% 21.2 mph ENE34.1 kmh ENE 26.9 mph43.3 kmh 29.77 in1008.1 mb 0.01 in0.3 mm 0.00 in0.0 mm 0.03 in0.8 mm
06:12 AM 41.9°F5.5°C 39.7°F4.3°C 92% 21.2 mph ESE34.1 kmh ESE 26.9 mph43.3 kmh 29.77 in1008.1 mb 0.01 in0.3 mm 0.00 in0.0 mm 0.03 in0.8 mm
06:11 AM 41.9°F5.5°C 40.0°F4.4°C 93% 21.2 mph NNE34.1 kmh NNE 26.4 mph42.5 kmh 29.77 in1008.1 mb 0.01 in0.3 mm 0.00 in0.0 mm 0.03 in0.8 mm
06:10 AM 41.9°F5.5°C 40.0°F4.4°C 93% 8.9 mph NNE14.3 kmh NNE 26.4 mph42.5 kmh 29.77 in1008.1 mb 0.01 in0.3 mm 0.00 in0.0 mm 0.03 in0.8 mm
06:09 AM 41.9°F5.5°C 40.0°F4.4°C 93% 17.6 mph NNE28.3 kmh NNE 26.4 mph42.5 kmh 29.77 in1008.1 mb 0.01 in0.3 mm 0.00 in0.0 mm 0.03 in0.8 mm
06:08 AM 41.9°F5.5°C 40.0°F4.4°C 93% 15.5 mph NE24.9 kmh NE 26.4 mph42.5 kmh 29.77 in1008.1 mb 0.01 in0.3 mm 0.00 in0.0 mm 0.03 in0.8 mm
06:07 AM 41.9°F5.5°C 40.0°F4.4°C 93% 19.7 mph NE31.7 kmh NE 26.4 mph42.5 kmh 29.77 in1008.1 mb 0.01 in0.3 mm 0.00 in0.0 mm 0.03 in0.8 mm
06:06 AM 41.9°F5.5°C 40.0°F4.4°C 93% 16.1 mph E25.9 kmh E 26.4 mph42.5 kmh 29.77 in1008.1 mb 0.01 in0.3 mm 0.00 in0.0 mm 0.03 in0.8 mm
06:05 AM 41.9°F5.5°C 40.0°F4.4°C 93% 26.4 mph NNE42.5 kmh NNE 26.4 mph42.5 kmh 29.77 in1008.1 mb 0.01 in0.3 mm 0.00 in0.0 mm 0.03 in0.8 mm
06:04 AM 41.9°F5.5°C 40.0°F4.4°C 93% 18.1 mph NNE29.1 kmh NNE 25.8 mph41.5 kmh 29.77 in1008.1 mb 0.01 in0.3 mm 0.00 in0.0 mm 0.03 in0.8 mm
06:03 AM 41.9°F5.5°C 40.0°F4.4°C 93% 7.3 mph NNE11.7 kmh NNE 25.8 mph41.5 kmh 29.77 in1008.1 mb 0.01 in0.3 mm 0.00 in0.0 mm 0.03 in0.8 mm
06:02 AM 41.9°F5.5°C 40.0°F4.4°C 93% 6.3 mph ESE10.1 kmh ESE 25.8 mph41.5 kmh 29.77 in1008.1 mb 0.01 in0.3 mm 0.00 in0.0 mm 0.03 in0.8 mm
06:01 AM 41.9°F5.5°C 40.0°F4.4°C 93% 14.5 mph ESE23.3 kmh ESE 25.8 mph41.5 kmh 29.78 in1008.5 mb 0.01 in0.3 mm 0.00 in0.0 mm 0.03 in0.8 mm
06:00 AM 41.9°F5.5°C 40.3°F4.6°C 94% 13.0 mph ENE20.9 kmh ENE 21.2 mph34.1 kmh 29.78 in1008.5 mb 0.01 in0.3 mm 0.00 in0.0 mm 0.03 in0.8 mm
05:59 AM 41.9°F5.5°C 40.3°F4.6°C 94% 15.5 mph NNE24.9 kmh NNE 21.2 mph34.1 kmh 29.78 in1008.5 mb 0.01 in0.3 mm 0.00 in0.0 mm 0.03 in0.8 mm
05:58 AM 41.9°F5.5°C 40.3°F4.6°C 94% 11.9 mph WNW19.2 kmh WNW 21.2 mph34.1 kmh 29.78 in1008.5 mb 0.01 in0.3 mm 0.00 in0.0 mm 0.03 in0.8 mm
05:57 AM 41.9°F5.5°C 40.3°F4.6°C 94% 21.2 mph NNE34.1 kmh NNE 21.2 mph34.1 kmh 29.78 in1008.5 mb 0.01 in0.3 mm 0.00 in0.0 mm 0.03 in0.8 mm
05:56 AM 41.9°F5.5°C 40.3°F4.6°C 94% 14.0 mph NE22.5 kmh NE 21.2 mph34.1 kmh 29.78 in1008.5 mb 0.01 in0.3 mm 0.00 in0.0 mm 0.03 in0.8 mm
05:55 AM 41.9°F5.5°C 40.3°F4.6°C 94% 13.5 mph NE21.7 kmh NE 21.2 mph34.1 kmh 29.78 in1008.5 mb 0.01 in0.3 mm 0.00 in0.0 mm 0.03 in0.8 mm
05:54 AM 41.9°F5.5°C 40.3°F4.6°C 94% 21.2 mph ESE34.1 kmh ESE 21.2 mph34.1 kmh 29.78 in1008.5 mb 0.01 in0.3 mm 0.00 in0.0 mm 0.03 in0.8 mm
05:53 AM 41.9°F5.5°C 40.3°F4.6°C 94% 2.7 mph NNE4.3 kmh NNE 25.3 mph40.7 kmh 29.78 in1008.5 mb 0.01 in0.3 mm 0.00 in0.0 mm 0.03 in0.8 mm
05:52 AM 42.1°F5.6°C 40.5°F4.7°C 94% 13.0 mph ESE20.9 kmh ESE 25.3 mph40.7 kmh 29.78 in1008.5 mb 0.01 in0.3 mm 0.00 in0.0 mm 0.03 in0.8 mm
05:51 AM 42.1°F5.6°C 40.5°F4.7°C 94% 12.5 mph ESE20.1 kmh ESE 25.3 mph40.7 kmh 29.78 in1008.5 mb 0.01 in0.3 mm 0.00 in0.0 mm 0.03 in0.8 mm
05:50 AM 42.1°F5.6°C 40.5°F4.7°C 94% 14.0 mph NE22.5 kmh NE 25.3 mph40.7 kmh 29.78 in1008.5 mb 0.01 in0.3 mm 0.00 in0.0 mm 0.03 in0.8 mm
05:49 AM 42.1°F5.6°C 40.5°F4.7°C 94% Calm Calm 25.3 mph40.7 kmh 29.78 in1008.5 mb 0.01 in0.3 mm 0.00 in0.0 mm 0.03 in0.8 mm
05:48 AM 42.1°F5.6°C 40.5°F4.7°C 94% 12.5 mph NNE20.1 kmh NNE 25.3 mph40.7 kmh 29.77 in1008.1 mb 0.01 in0.3 mm 0.00 in0.0 mm 0.03 in0.8 mm
05:47 AM 42.1°F5.6°C 40.5°F4.7°C 94% 17.6 mph E28.3 kmh E 25.3 mph40.7 kmh 29.77 in1008.1 mb 0.01 in0.3 mm 0.00 in0.0 mm 0.03 in0.8 mm
05:46 AM 42.1°F5.6°C 40.5°F4.7°C 94% 14.5 mph NNE23.3 kmh NNE 25.3 mph40.7 kmh 29.77 in1008.1 mb 0.01 in0.3 mm 0.00 in0.0 mm 0.03 in0.8 mm
05:45 AM 42.1°F5.6°C 40.5°F4.7°C 94% Calm Calm 25.3 mph40.7 kmh 29.77 in1008.1 mb 0.01 in0.3 mm 0.00 in0.0 mm 0.03 in0.8 mm
05:44 AM 42.1°F5.6°C 40.5°F4.7°C 94% 14.5 mph NNE23.3 kmh NNE 25.3 mph40.7 kmh 29.77 in1008.1 mb 0.01 in0.3 mm 0.00 in0.0 mm 0.03 in0.8 mm
05:43 AM 42.1°F5.6°C 40.8°F4.9°C 95% 14.5 mph NE23.3 kmh NE 25.3 mph40.7 kmh 29.77 in1008.1 mb 0.01 in0.3 mm 0.00 in0.0 mm 0.03 in0.8 mm
05:42 AM 42.1°F5.6°C 40.8°F4.9°C 95% 14.5 mph NE23.3 kmh NE 25.3 mph40.7 kmh 29.77 in1008.1 mb 0.01 in0.3 mm 0.00 in0.0 mm 0.03 in0.8 mm
05:41 AM 42.1°F5.6°C 40.8°F4.9°C 95% 16.1 mph NE25.9 kmh NE 25.3 mph40.7 kmh 29.77 in1008.1 mb 0.01 in0.3 mm 0.00 in0.0 mm 0.03 in0.8 mm
05:40 AM 42.1°F5.6°C 40.8°F4.9°C 95% 16.1 mph NE25.9 kmh NE 26.9 mph43.3 kmh 29.77 in1008.1 mb 0.01 in0.3 mm 0.00 in0.0 mm 0.03 in0.8 mm
05:39 AM 42.1°F5.6°C 40.8°F4.9°C 95% 2.7 mph ESE4.3 kmh ESE 26.9 mph43.3 kmh 29.77 in1008.1 mb 0.01 in0.3 mm 0.00 in0.0 mm 0.03 in0.8 mm
05:38 AM 42.1°F5.6°C 40.8°F4.9°C 95% 17.1 mph W27.5 kmh W 26.9 mph43.3 kmh 29.77 in1008.1 mb 0.01 in0.3 mm 0.00 in0.0 mm 0.03 in0.8 mm
05:37 AM 42.1°F5.6°C 41.0°F5.0°C 96% 16.1 mph ENE25.9 kmh ENE 26.9 mph43.3 kmh 29.77 in1008.1 mb 0.01 in0.3 mm 0.00 in0.0 mm 0.03 in0.8 mm
05:36 AM 42.1°F5.6°C 41.0°F5.0°C 96% 18.1 mph ESE29.1 kmh ESE 26.9 mph43.3 kmh 29.77 in1008.1 mb 0.01 in0.3 mm 0.00 in0.0 mm 0.03 in0.8 mm
05:35 AM 42.3°F5.7°C 41.2°F5.1°C 96% 13.0 mph ENE20.9 kmh ENE 26.9 mph43.3 kmh 29.77 in1008.1 mb 0.01 in0.3 mm 0.00 in0.0 mm 0.03 in0.8 mm
05:34 AM 42.3°F5.7°C 41.2°F5.1°C 96% 10.4 mph NNE16.7 kmh NNE 26.9 mph43.3 kmh 29.77 in1008.1 mb 0.01 in0.3 mm 0.00 in0.0 mm 0.03 in0.8 mm
05:33 AM 42.3°F5.7°C 41.2°F5.1°C 96% 10.4 mph NE16.7 kmh NE 26.9 mph43.3 kmh 29.77 in1008.1 mb 0.01 in0.3 mm 0.00 in0.0 mm 0.03 in0.8 mm
05:32 AM 42.3°F5.7°C 41.2°F5.1°C 96% 16.6 mph ENE26.7 kmh ENE 26.9 mph43.3 kmh 29.77 in1008.1 mb 0.01 in0.3 mm 0.00 in0.0 mm 0.03 in0.8 mm
05:31 AM 42.3°F5.7°C 41.2°F5.1°C 96% 10.4 mph NE16.7 kmh NE 26.9 mph43.3 kmh 29.77 in1008.1 mb 0.01 in0.3 mm 0.00 in0.0 mm 0.03 in0.8 mm
05:30 AM 42.3°F5.7°C 41.2°F5.1°C 96% 22.7 mph NE36.5 kmh NE 22.7 mph36.5 kmh 29.77 in1008.1 mb 0.01 in0.3 mm 0.00 in0.0 mm 0.03 in0.8 mm
05:29 AM 42.3°F5.7°C 41.2°F5.1°C 96% 15.5 mph NE24.9 kmh NE 21.2 mph34.1 kmh 29.77 in1008.1 mb 0.01 in0.3 mm 0.00 in0.0 mm 0.03 in0.8 mm
05:28 AM 42.3°F5.7°C 41.2°F5.1°C 96% 10.4 mph NE16.7 kmh NE 21.2 mph34.1 kmh 29.77 in1008.1 mb 0.01 in0.3 mm 0.00 in0.0 mm 0.03 in0.8 mm
05:27 AM 42.3°F5.7°C 41.2°F5.1°C 96% 13.5 mph E21.7 kmh E 21.2 mph34.1 kmh 29.77 in1008.1 mb 0.01 in0.3 mm 0.00 in0.0 mm 0.03 in0.8 mm
05:26 AM 42.3°F5.7°C 41.2°F5.1°C 96% Calm Calm 21.7 mph34.9 kmh 29.77 in1008.1 mb 0.01 in0.3 mm 0.00 in0.0 mm 0.03 in0.8 mm
05:25 AM 42.3°F5.7°C 41.2°F5.1°C 96% 17.6 mph NNE28.3 kmh NNE 21.7 mph34.9 kmh 29.77 in1008.1 mb 0.01 in0.3 mm 0.00 in0.0 mm 0.03 in0.8 mm
05:24 AM 42.3°F5.7°C 41.2°F5.1°C 96% 18.6 mph NNE29.9 kmh NNE 21.7 mph34.9 kmh 29.79 in1008.8 mb 0.01 in0.3 mm 0.00 in0.0 mm 0.03 in0.8 mm
05:23 AM 42.3°F5.7°C 41.2°F5.1°C 96% 11.4 mph NE18.3 kmh NE 21.7 mph34.9 kmh 29.79 in1008.8 mb 0.01 in0.3 mm 0.00 in0.0 mm 0.03 in0.8 mm
05:22 AM 42.3°F5.7°C 41.2°F5.1°C 96% 4.7 mph NE7.6 kmh NE 21.7 mph34.9 kmh 29.79 in1008.8 mb 0.01 in0.3 mm 0.00 in0.0 mm 0.03 in0.8 mm
05:21 AM 42.3°F5.7°C 41.2°F5.1°C 96% 3.7 mph NNE6.0 kmh NNE 21.7 mph34.9 kmh 29.79 in1008.8 mb 0.01 in0.3 mm 0.00 in0.0 mm 0.03 in0.8 mm
05:20 AM 42.4°F5.8°C 41.3°F5.2°C 96% 4.2 mph E6.8 kmh E 21.7 mph34.9 kmh 29.79 in1008.8 mb 0.01 in0.3 mm 0.00 in0.0 mm 0.03 in0.8 mm
05:19 AM 42.4°F5.8°C 41.3°F5.2°C 96% 13.0 mph NNE20.9 kmh NNE 21.7 mph34.9 kmh 29.79 in1008.8 mb 0.01 in0.3 mm 0.00 in0.0 mm 0.03 in0.8 mm
05:18 AM 42.4°F5.8°C 41.3°F5.2°C 96% 10.9 mph NE17.5 kmh NE 21.7 mph34.9 kmh 29.79 in1008.8 mb 0.02 in0.5 mm 0.00 in0.0 mm 0.03 in0.8 mm
05:17 AM 42.4°F5.8°C 41.3°F5.2°C 96% 14.5 mph NE23.3 kmh NE 21.7 mph34.9 kmh 29.79 in1008.8 mb 0.02 in0.5 mm 0.60 in15.2 mm 0.03 in0.8 mm
05:16 AM 42.4°F5.8°C 41.6°F5.3°C 97% 5.8 mph E9.3 kmh E 22.2 mph35.7 kmh 29.79 in1008.8 mb 0.01 in0.3 mm 0.00 in0.0 mm 0.02 in0.5 mm
05:15 AM 42.4°F5.8°C 41.6°F5.3°C 97% 9.4 mph E15.1 kmh E 22.2 mph35.7 kmh 29.79 in1008.8 mb 0.01 in0.3 mm 0.00 in0.0 mm 0.02 in0.5 mm
05:14 AM 42.4°F5.8°C 41.6°F5.3°C 97% 10.4 mph E16.7 kmh E 22.2 mph35.7 kmh 29.79 in1008.8 mb 0.01 in0.3 mm 0.00 in0.0 mm 0.02 in0.5 mm
05:13 AM 42.4°F5.8°C 41.6°F5.3°C 97% 5.3 mph NNE8.5 kmh NNE 22.2 mph35.7 kmh 29.79 in1008.8 mb 0.01 in0.3 mm 0.00 in0.0 mm 0.02 in0.5 mm
05:12 AM 42.4°F5.8°C 41.6°F5.3°C 97% 14.5 mph NE23.3 kmh NE 22.2 mph35.7 kmh 29.79 in1008.8 mb 0.01 in0.3 mm 0.00 in0.0 mm 0.02 in0.5 mm
05:11 AM 42.4°F5.8°C 41.6°F5.3°C 97% 13.5 mph ENE21.7 kmh ENE 22.2 mph35.7 kmh 29.79 in1008.8 mb 0.01 in0.3 mm 0.00 in0.0 mm 0.02 in0.5 mm
05:10 AM 42.6°F5.9°C 41.8°F5.4°C 97% 14.5 mph ENE23.3 kmh ENE 22.2 mph35.7 kmh 29.79 in1008.8 mb 0.01 in0.3 mm 0.00 in0.0 mm 0.02 in0.5 mm
05:09 AM 42.6°F5.9°C 41.8°F5.4°C 97% Calm Calm 22.2 mph35.7 kmh 29.79 in1008.8 mb 0.01 in0.3 mm 0.00 in0.0 mm 0.02 in0.5 mm
05:08 AM 42.6°F5.9°C 41.8°F5.4°C 97% 14.5 mph E23.3 kmh E 22.2 mph35.7 kmh 29.79 in1008.8 mb 0.01 in0.3 mm 0.00 in0.0 mm 0.02 in0.5 mm
05:07 AM 42.6°F5.9°C 41.8°F5.4°C 97% Calm Calm 22.2 mph35.7 kmh 29.79 in1008.8 mb 0.01 in0.3 mm 0.00 in0.0 mm 0.02 in0.5 mm
05:06 AM 42.6°F5.9°C 41.8°F5.4°C 97% 22.2 mph ESE35.7 kmh ESE 22.2 mph35.7 kmh 29.79 in1008.8 mb 0.01 in0.3 mm 0.00 in0.0 mm 0.02 in0.5 mm
05:05 AM 42.6°F5.9°C 41.8°F5.4°C 97% 15.5 mph ENE24.9 kmh ENE 19.7 mph31.7 kmh 29.79 in1008.8 mb 0.01 in0.3 mm 0.00 in0.0 mm 0.02 in0.5 mm
05:04 AM 42.6°F5.9°C 41.8°F5.4°C 97% 9.4 mph E15.1 kmh E 19.7 mph31.7 kmh 29.79 in1008.8 mb 0.01 in0.3 mm 0.00 in0.0 mm 0.02 in0.5 mm
05:03 AM 42.6°F5.9°C 41.8°F5.4°C 97% 14.0 mph E22.5 kmh E 19.7 mph31.7 kmh 29.79 in1008.8 mb 0.01 in0.3 mm 0.00 in0.0 mm 0.02 in0.5 mm
05:02 AM 42.6°F5.9°C 41.8°F5.4°C 97% 3.2 mph NNE5.1 kmh NNE 19.7 mph31.7 kmh 29.79 in1008.8 mb 0.01 in0.3 mm 0.00 in0.0 mm 0.02 in0.5 mm
05:01 AM 42.6°F5.9°C 41.8°F5.4°C 97% 8.3 mph E13.4 kmh E 19.7 mph31.7 kmh 29.78 in1008.5 mb 0.01 in0.3 mm 0.00 in0.0 mm 0.02 in0.5 mm
05:00 AM 42.6°F5.9°C 41.8°F5.4°C 97% 15.0 mph NNE24.1 kmh NNE 19.7 mph31.7 kmh 29.78 in1008.5 mb 0.01 in0.3 mm 0.00 in0.0 mm 0.02 in0.5 mm
04:59 AM 42.6°F5.9°C 41.8°F5.4°C 97% 15.5 mph E24.9 kmh E 19.7 mph31.7 kmh 29.78 in1008.5 mb 0.01 in0.3 mm 0.00 in0.0 mm 0.02 in0.5 mm
04:58 AM 42.6°F5.9°C 41.8°F5.4°C 97% 2.2 mph NNE3.5 kmh NNE 19.7 mph31.7 kmh 29.78 in1008.5 mb 0.01 in0.3 mm 0.00 in0.0 mm 0.02 in0.5 mm
04:57 AM 42.6°F5.9°C 41.8°F5.4°C 97% 3.7 mph NNE6.0 kmh NNE 19.7 mph31.7 kmh 29.78 in1008.5 mb 0.01 in0.3 mm 0.00 in0.0 mm 0.02 in0.5 mm
04:56 AM 42.6°F5.9°C 41.8°F5.4°C 97% Calm Calm 19.7 mph31.7 kmh 29.78 in1008.5 mb 0.01 in0.3 mm 0.00 in0.0 mm 0.02 in0.5 mm
04:55 AM 42.6°F5.9°C 41.8°F5.4°C 97% 1.1 mph S1.8 kmh S 19.7 mph31.7 kmh 29.78 in1008.5 mb 0.01 in0.3 mm 0.00 in0.0 mm 0.02 in0.5 mm
04:54 AM 42.6°F5.9°C 41.8°F5.4°C 97% 7.3 mph NE11.7 kmh NE 19.7 mph31.7 kmh 29.78 in1008.5 mb 0.01 in0.3 mm 0.00 in0.0 mm 0.02 in0.5 mm
04:53 AM 42.6°F5.9°C 41.8°F5.4°C 97% 18.6 mph E29.9 kmh E 21.2 mph34.1 kmh 29.78 in1008.5 mb 0.01 in0.3 mm 0.00 in0.0 mm 0.02 in0.5 mm
04:52 AM 42.6°F5.9°C 41.8°F5.4°C 97% Calm Calm 21.2 mph34.1 kmh 29.78 in1008.5 mb 0.01 in0.3 mm 0.00 in0.0 mm 0.02 in0.5 mm
04:51 AM 42.6°F5.9°C 41.8°F5.4°C 97% 3.7 mph ENE6.0 kmh ENE 21.2 mph34.1 kmh 29.78 in1008.5 mb 0.01 in0.3 mm 0.00 in0.0 mm 0.02 in0.5 mm
04:50 AM 42.6°F5.9°C 41.8°F5.4°C 97% 10.9 mph ENE17.5 kmh ENE 21.2 mph34.1 kmh 29.78 in1008.5 mb 0.01 in0.3 mm 0.00 in0.0 mm 0.02 in0.5 mm
04:49 AM 42.6°F5.9°C 41.8°F5.4°C 97% 4.2 mph NE6.8 kmh NE 21.2 mph34.1 kmh 29.77 in1008.1 mb 0.01 in0.3 mm 0.00 in0.0 mm 0.02 in0.5 mm
04:48 AM 42.6°F5.9°C 41.8°F5.4°C 97% 10.9 mph E17.5 kmh E 21.2 mph34.1 kmh 29.77 in1008.1 mb 0.01 in0.3 mm 0.00 in0.0 mm 0.02 in0.5 mm
04:47 AM 42.6°F5.9°C 41.8°F5.4°C 97% 9.4 mph ENE15.1 kmh ENE 21.2 mph34.1 kmh 29.77 in1008.1 mb 0.01 in0.3 mm 0.00 in0.0 mm 0.02 in0.5 mm
04:46 AM 42.6°F5.9°C 41.8°F5.4°C 97% 10.9 mph E17.5 kmh E 21.2 mph34.1 kmh 29.77 in1008.1 mb 0.01 in0.3 mm 0.00 in0.0 mm 0.02 in0.5 mm
04:45 AM 42.6°F5.9°C 41.8°F5.4°C 97% 17.6 mph NE28.3 kmh NE 21.2 mph34.1 kmh 29.77 in1008.1 mb 0.01 in0.3 mm 0.00 in0.0 mm 0.02 in0.5 mm
04:44 AM 42.6°F5.9°C 41.8°F5.4°C 97% 11.4 mph NE18.3 kmh NE 21.2 mph34.1 kmh 29.77 in1008.1 mb 0.01 in0.3 mm 0.00 in0.0 mm 0.02 in0.5 mm
04:43 AM 42.6°F5.9°C 41.8°F5.4°C 97% Calm Calm 19.7 mph31.7 kmh 29.77 in1008.1 mb 0.01 in0.3 mm 0.00 in0.0 mm 0.02 in0.5 mm
04:42 AM 42.6°F5.9°C 41.8°F5.4°C 97% 13.5 mph NE21.7 kmh NE 19.7 mph31.7 kmh 29.77 in1008.1 mb 0.01 in0.3 mm 0.00 in0.0 mm 0.02 in0.5 mm
04:41 AM 42.6°F5.9°C 41.8°F5.4°C 97% 4.2 mph NE6.8 kmh NE 19.1 mph30.7 kmh 29.77 in1008.1 mb 0.01 in0.3 mm 0.00 in0.0 mm 0.02 in0.5 mm
04:40 AM 42.6°F5.9°C 41.8°F5.4°C 97% 14.5 mph NE23.3 kmh NE 19.1 mph30.7 kmh 29.77 in1008.1 mb 0.01 in0.3 mm 0.00 in0.0 mm 0.02 in0.5 mm
04:39 AM 42.6°F5.9°C 41.8°F5.4°C 97% 7.8 mph NE12.6 kmh NE 20.7 mph33.3 kmh 29.77 in1008.1 mb 0.02 in0.5 mm 0.00 in0.0 mm 0.02 in0.5 mm
04:38 AM 42.6°F5.9°C 41.8°F5.4°C 97% 1.1 mph ENE1.8 kmh ENE 20.7 mph33.3 kmh 29.77 in1008.1 mb 0.02 in0.5 mm 0.00 in0.0 mm 0.02 in0.5 mm
04:37 AM 42.6°F5.9°C 41.8°F5.4°C 97% 3.2 mph NE5.1 kmh NE 20.7 mph33.3 kmh 29.77 in1008.1 mb 0.02 in0.5 mm 0.00 in0.0 mm 0.02 in0.5 mm
04:36 AM 42.6°F5.9°C 41.8°F5.4°C 97% 14.0 mph ESE22.5 kmh ESE 20.7 mph33.3 kmh 29.77 in1008.1 mb 0.02 in0.5 mm 0.00 in0.0 mm 0.02 in0.5 mm
04:35 AM 42.6°F5.9°C 41.8°F5.4°C 97% 11.9 mph N19.2 kmh N 20.7 mph33.3 kmh 29.77 in1008.1 mb 0.02 in0.5 mm 0.00 in0.0 mm 0.02 in0.5 mm
04:34 AM 42.6°F5.9°C 41.8°F5.4°C 97% 1.7 mph ENE2.7 kmh ENE 20.7 mph33.3 kmh 29.77 in1008.1 mb 0.02 in0.5 mm 0.00 in0.0 mm 0.02 in0.5 mm
04:33 AM 42.6°F5.9°C 41.8°F5.4°C 97% Calm Calm 21.2 mph34.1 kmh 29.77 in1008.1 mb 0.02 in0.5 mm 0.00 in0.0 mm 0.02 in0.5 mm
04:32 AM 42.6°F5.9°C 41.8°F5.4°C 97% 2.2 mph ESE3.5 kmh ESE 21.2 mph34.1 kmh 29.77 in1008.1 mb 0.02 in0.5 mm 0.00 in0.0 mm 0.02 in0.5 mm
04:31 AM 42.6°F5.9°C 41.8°F5.4°C 97% 16.6 mph NNE26.7 kmh NNE 21.2 mph34.1 kmh 29.77 in1008.1 mb 0.02 in0.5 mm 0.00 in0.0 mm 0.02 in0.5 mm
04:30 AM 42.6°F5.9°C 41.8°F5.4°C 97% 10.4 mph NNE16.7 kmh NNE 21.2 mph34.1 kmh 29.77 in1008.1 mb 0.02 in0.5 mm 0.00 in0.0 mm 0.02 in0.5 mm
04:29 AM 42.6°F5.9°C 41.8°F5.4°C 97% 13.5 mph NE21.7 kmh NE 21.2 mph34.1 kmh 29.77 in1008.1 mb 0.02 in0.5 mm 0.00 in0.0 mm 0.02 in0.5 mm
04:28 AM 42.6°F5.9°C 41.8°F5.4°C 97% 1.1 mph E1.8 kmh E 21.2 mph34.1 kmh 29.77 in1008.1 mb 0.02 in0.5 mm 0.00 in0.0 mm 0.02 in0.5 mm
04:27 AM 42.6°F5.9°C 41.8°F5.4°C 97% 12.5 mph NE20.1 kmh NE 21.2 mph34.1 kmh 29.77 in1008.1 mb 0.02 in0.5 mm 0.00 in0.0 mm 0.02 in0.5 mm
04:26 AM 42.8°F6.0°C 42.0°F5.6°C 97% 8.3 mph ENE13.4 kmh ENE 21.2 mph34.1 kmh 29.77 in1008.1 mb 0.02 in0.5 mm 0.00 in0.0 mm 0.02 in0.5 mm
04:25 AM 42.8°F6.0°C 42.0°F5.6°C 97% 5.3 mph E8.5 kmh E 21.2 mph34.1 kmh 29.77 in1008.1 mb 0.02 in0.5 mm 0.00 in0.0 mm 0.02 in0.5 mm
04:24 AM 42.8°F6.0°C 42.0°F5.6°C 97% 7.3 mph ESE11.7 kmh ESE 21.2 mph34.1 kmh 29.77 in1008.1 mb 0.02 in0.5 mm 0.00 in0.0 mm 0.02 in0.5 mm
04:23 AM 42.8°F6.0°C 42.0°F5.6°C 97% 1.7 mph NNE2.7 kmh NNE 19.1 mph30.7 kmh 29.77 in1008.1 mb 0.02 in0.5 mm 0.00 in0.0 mm 0.02 in0.5 mm
04:22 AM 42.8°F6.0°C 42.0°F5.6°C 97% 5.8 mph NNE9.3 kmh NNE 19.1 mph30.7 kmh 29.77 in1008.1 mb 0.02 in0.5 mm 0.00 in0.0 mm 0.02 in0.5 mm
04:21 AM 42.8°F6.0°C 42.0°F5.6°C 97% 12.5 mph NE20.1 kmh NE 19.1 mph30.7 kmh 29.77 in1008.1 mb 0.02 in0.5 mm 0.00 in0.0 mm 0.02 in0.5 mm
04:20 AM 42.8°F6.0°C 42.0°F5.6°C 97% 19.1 mph NE30.7 kmh NE 19.1 mph30.7 kmh 29.77 in1008.1 mb 0.02 in0.5 mm 0.00 in0.0 mm 0.02 in0.5 mm
04:19 AM 42.8°F6.0°C 42.0°F5.6°C 97% 18.1 mph NNE29.1 kmh NNE 19.1 mph30.7 kmh 29.77 in1008.1 mb 0.02 in0.5 mm 0.60 in15.2 mm 0.02 in0.5 mm
04:18 AM 42.8°F6.0°C 42.0°F5.6°C 97% 11.9 mph ESE19.2 kmh ESE 24.8 mph39.9 kmh 29.77 in1008.1 mb 0.01 in0.3 mm 0.00 in0.0 mm 0.01 in0.3 mm
04:17 AM 42.8°F6.0°C 42.0°F5.6°C 97% 1.7 mph ESE2.7 kmh ESE 24.8 mph39.9 kmh 29.77 in1008.1 mb 0.01 in0.3 mm 0.00 in0.0 mm 0.01 in0.3 mm
04:16 AM 42.8°F6.0°C 42.0°F5.6°C 97% 2.2 mph NNE3.5 kmh NNE 24.8 mph39.9 kmh 29.77 in1008.1 mb 0.01 in0.3 mm 0.00 in0.0 mm 0.01 in0.3 mm
04:15 AM 42.8°F6.0°C 42.0°F5.6°C 97% 14.5 mph ENE23.3 kmh ENE 24.8 mph39.9 kmh 29.77 in1008.1 mb 0.01 in0.3 mm 0.00 in0.0 mm 0.01 in0.3 mm
04:14 AM 42.8°F6.0°C 42.0°F5.6°C 97% 11.4 mph NNE18.3 kmh NNE 24.8 mph39.9 kmh 29.77 in1008.1 mb 0.01 in0.3 mm 0.00 in0.0 mm 0.01 in0.3 mm
04:13 AM 42.8°F6.0°C 42.0°F5.6°C 97% 14.0 mph E22.5 kmh E 24.8 mph39.9 kmh 29.77 in1008.1 mb 0.01 in0.3 mm 0.00 in0.0 mm 0.01 in0.3 mm
04:12 AM 42.8°F6.0°C 42.0°F5.6°C 97% 19.1 mph E30.7 kmh E 24.8 mph39.9 kmh 29.77 in1008.1 mb 0.01 in0.3 mm 0.00 in0.0 mm 0.01 in0.3 mm
04:11 AM 42.8°F6.0°C 42.0°F5.6°C 97% 18.1 mph E29.1 kmh E 24.8 mph39.9 kmh 29.77 in1008.1 mb 0.01 in0.3 mm 0.00 in0.0 mm 0.01 in0.3 mm
04:10 AM 42.8°F6.0°C 42.0°F5.6°C 97% 14.5 mph ENE23.3 kmh ENE 24.8 mph39.9 kmh 29.77 in1008.1 mb 0.01 in0.3 mm 0.00 in0.0 mm 0.01 in0.3 mm
04:09 AM 42.8°F6.0°C 42.0°F5.6°C 97% 8.3 mph E13.4 kmh E 24.8 mph39.9 kmh 29.77 in1008.1 mb 0.01 in0.3 mm 0.00 in0.0 mm 0.01 in0.3 mm
04:08 AM 42.8°F6.0°C 42.0°F5.6°C 97% 19.7 mph ENE31.7 kmh ENE 23.8 mph38.3 kmh 29.77 in1008.1 mb 0.01 in0.3 mm 0.00 in0.0 mm 0.01 in0.3 mm
04:07 AM 43.0°F6.1°C 42.2°F5.7°C 97% 17.1 mph ENE27.5 kmh ENE 23.8 mph38.3 kmh 29.77 in1008.1 mb 0.01 in0.3 mm 0.00 in0.0 mm 0.01 in0.3 mm
04:06 AM 43.0°F6.1°C 42.2°F5.7°C 97% 8.9 mph NE14.3 kmh NE 23.8 mph38.3 kmh 29.77 in1008.1 mb 0.01 in0.3 mm 0.00 in0.0 mm 0.01 in0.3 mm
04:05 AM 43.0°F6.1°C 42.2°F5.7°C 97% 10.9 mph E17.5 kmh E 23.8 mph38.3 kmh 29.77 in1008.1 mb 0.01 in0.3 mm 0.00 in0.0 mm 0.01 in0.3 mm
04:04 AM 43.0°F6.1°C 42.2°F5.7°C 97% 6.3 mph NE10.1 kmh NE 23.8 mph38.3 kmh 29.77 in1008.1 mb 0.01 in0.3 mm 0.00 in0.0 mm 0.01 in0.3 mm
04:03 AM 43.0°F6.1°C 42.2°F5.7°C 97% 16.1 mph NNE25.9 kmh NNE 23.8 mph38.3 kmh 29.77 in1008.1 mb 0.01 in0.3 mm 0.00 in0.0 mm 0.01 in0.3 mm
04:02 AM 43.0°F6.1°C 42.2°F5.7°C 97% 14.5 mph NE23.3 kmh NE 23.8 mph38.3 kmh 29.77 in1008.1 mb 0.01 in0.3 mm 0.00 in0.0 mm 0.01 in0.3 mm
04:01 AM 43.0°F6.1°C 42.2°F5.7°C 97% 1.7 mph NE2.7 kmh NE 20.2 mph32.5 kmh 29.77 in1008.1 mb 0.01 in0.3 mm 0.00 in0.0 mm 0.01 in0.3 mm
04:00 AM 43.0°F6.1°C 42.2°F5.7°C 97% 8.9 mph E14.3 kmh E 21.2 mph34.1 kmh 29.78 in1008.5 mb 0.01 in0.3 mm 0.00 in0.0 mm 0.01 in0.3 mm
03:59 AM 43.0°F6.1°C 42.2°F5.7°C 97% 17.6 mph NNE28.3 kmh NNE 21.2 mph34.1 kmh 29.78 in1008.5 mb 0.01 in0.3 mm 0.00 in0.0 mm 0.01 in0.3 mm
03:58 AM 43.0°F6.1°C 42.2°F5.7°C 97% 9.4 mph NNE15.1 kmh NNE 21.2 mph34.1 kmh 29.78 in1008.5 mb 0.01 in0.3 mm 0.00 in0.0 mm 0.01 in0.3 mm
03:57 AM 43.0°F6.1°C 42.2°F5.7°C 97% 19.1 mph NNE30.7 kmh NNE 21.2 mph34.1 kmh 29.78 in1008.5 mb 0.01 in0.3 mm 0.00 in0.0 mm 0.01 in0.3 mm
03:56 AM 43.2°F6.2°C 42.4°F5.8°C 97% 11.4 mph NNE18.3 kmh NNE 21.2 mph34.1 kmh 29.78 in1008.5 mb 0.01 in0.3 mm 0.00 in0.0 mm 0.01 in0.3 mm
03:55 AM 43.2°F6.2°C 42.4°F5.8°C 97% 8.3 mph NNE13.4 kmh NNE 21.2 mph34.1 kmh 29.78 in1008.5 mb 0.01 in0.3 mm 0.00 in0.0 mm 0.01 in0.3 mm
03:54 AM 43.2°F6.2°C 42.4°F5.8°C 97% 4.7 mph WNW7.6 kmh WNW 21.2 mph34.1 kmh 29.78 in1008.5 mb 0.01 in0.3 mm 0.00 in0.0 mm 0.01 in0.3 mm
03:53 AM 43.2°F6.2°C 42.4°F5.8°C 97% 18.6 mph ENE29.9 kmh ENE 21.2 mph34.1 kmh 29.78 in1008.5 mb 0.01 in0.3 mm 0.00 in0.0 mm 0.01 in0.3 mm
03:52 AM 43.2°F6.2°C 42.4°F5.8°C 97% 15.0 mph NE24.1 kmh NE 21.2 mph34.1 kmh 29.78 in1008.5 mb 0.01 in0.3 mm 0.00 in0.0 mm 0.01 in0.3 mm
03:51 AM 43.2°F6.2°C 42.4°F5.8°C 97% 6.3 mph ESE10.1 kmh ESE 21.2 mph34.1 kmh 29.78 in1008.5 mb 0.01 in0.3 mm 0.00 in0.0 mm 0.01 in0.3 mm
03:50 AM 43.2°F6.2°C 42.4°F5.8°C 97% 21.2 mph NNE34.1 kmh NNE 21.2 mph34.1 kmh 29.78 in1008.5 mb 0.01 in0.3 mm 0.00 in0.0 mm 0.01 in0.3 mm
03:49 AM 43.2°F6.2°C 42.4°F5.8°C 97% 14.0 mph ENE22.5 kmh ENE 20.2 mph32.5 kmh 29.78 in1008.5 mb 0.01 in0.3 mm 0.00 in0.0 mm 0.01 in0.3 mm
03:48 AM 43.2°F6.2°C 42.4°F5.8°C 97% 1.1 mph ENE1.8 kmh ENE 20.2 mph32.5 kmh 29.79 in1008.8 mb 0.01 in0.3 mm 0.00 in0.0 mm 0.01 in0.3 mm
03:47 AM 43.2°F6.2°C 42.4°F5.8°C 97% 13.5 mph NE21.7 kmh NE 20.2 mph32.5 kmh 29.79 in1008.8 mb 0.01 in0.3 mm 0.00 in0.0 mm 0.01 in0.3 mm
03:46 AM 43.2°F6.2°C 42.4°F5.8°C 97% 9.4 mph E15.1 kmh E 20.2 mph32.5 kmh 29.79 in1008.8 mb 0.01 in0.3 mm 0.00 in0.0 mm 0.01 in0.3 mm
03:45 AM 43.2°F6.2°C 42.4°F5.8°C 97% 3.7 mph E6.0 kmh E 20.2 mph32.5 kmh 29.79 in1008.8 mb 0.01 in0.3 mm 0.00 in0.0 mm 0.01 in0.3 mm
03:44 AM 43.2°F6.2°C 42.4°F5.8°C 97% 16.6 mph E26.7 kmh E 20.2 mph32.5 kmh 29.79 in1008.8 mb 0.01 in0.3 mm 0.00 in0.0 mm 0.01 in0.3 mm
03:43 AM 43.2°F6.2°C 42.4°F5.8°C 97% 16.6 mph E26.7 kmh E 20.2 mph32.5 kmh 29.79 in1008.8 mb 0.01 in0.3 mm 0.00 in0.0 mm 0.01 in0.3 mm
03:42 AM 43.2°F6.2°C 42.4°F5.8°C 97% 17.6 mph E28.3 kmh E 20.2 mph32.5 kmh 29.79 in1008.8 mb 0.01 in0.3 mm 0.00 in0.0 mm 0.01 in0.3 mm
03:41 AM 43.2°F6.2°C 42.4°F5.8°C 97% 15.5 mph NNE24.9 kmh NNE 20.2 mph32.5 kmh 29.79 in1008.8 mb 0.01 in0.3 mm 0.00 in0.0 mm 0.01 in0.3 mm
03:40 AM 43.2°F6.2°C 42.4°F5.8°C 97% 12.5 mph ENE20.1 kmh ENE 20.2 mph32.5 kmh 29.79 in1008.8 mb 0.01 in0.3 mm 0.60 in15.2 mm 0.01 in0.3 mm
03:39 AM 43.2°F6.2°C 42.4°F5.8°C 97% 11.4 mph SE18.3 kmh SE 18.6 mph29.9 kmh 29.79 in1008.8 mb 0.00 in0.0 mm 0.00 in0.0 mm 0.00 in0.0 mm
03:38 AM 43.2°F6.2°C 42.4°F5.8°C 97% 11.4 mph SE18.3 kmh SE 18.6 mph29.9 kmh 29.79 in1008.8 mb 0.00 in0.0 mm 0.00 in0.0 mm 0.00 in0.0 mm
03:37 AM 43.2°F6.2°C 42.4°F5.8°C 97% 13.0 mph ESE20.9 kmh ESE 16.6 mph26.7 kmh 29.79 in1008.8 mb 0.00 in0.0 mm 0.00 in0.0 mm 0.00 in0.0 mm
03:36 AM 43.2°F6.2°C 42.4°F5.8°C 97% 1.1 mph ENE1.8 kmh ENE 16.6 mph26.7 kmh 29.77 in1008.1 mb 0.00 in0.0 mm 0.00 in0.0 mm 0.00 in0.0 mm
03:35 AM 43.2°F6.2°C 42.4°F5.8°C 97% 14.0 mph NE22.5 kmh NE 16.6 mph26.7 kmh 29.77 in1008.1 mb 0.00 in0.0 mm 0.00 in0.0 mm 0.00 in0.0 mm
03:34 AM 43.2°F6.2°C 42.4°F5.8°C 97% 10.9 mph ENE17.5 kmh ENE 16.6 mph26.7 kmh 29.77 in1008.1 mb 0.00 in0.0 mm 0.00 in0.0 mm 0.00 in0.0 mm
03:33 AM 43.2°F6.2°C 42.4°F5.8°C 97% 12.5 mph E20.1 kmh E 21.2 mph34.1 kmh 29.77 in1008.1 mb 0.00 in0.0 mm 0.00 in0.0 mm 0.00 in0.0 mm
03:32 AM 43.2°F6.2°C 42.4°F5.8°C 97% Calm Calm 21.2 mph34.1 kmh 29.77 in1008.1 mb 0.00 in0.0 mm 0.00 in0.0 mm 0.00 in0.0 mm
03:31 AM 43.2°F6.2°C 42.4°F5.8°C 97% Calm Calm 21.2 mph34.1 kmh 29.77 in1008.1 mb 0.00 in0.0 mm 0.00 in0.0 mm 0.00 in0.0 mm
03:30 AM 43.2°F6.2°C 42.4°F5.8°C 97% 7.8 mph NNE12.6 kmh NNE 21.2 mph34.1 kmh 29.77 in1008.1 mb 0.00 in0.0 mm 0.00 in0.0 mm 0.00 in0.0 mm
03:29 AM 43.2°F6.2°C 42.4°F5.8°C 97% 1.1 mph ENE1.8 kmh ENE 21.2 mph34.1 kmh 29.77 in1008.1 mb 0.00 in0.0 mm 0.00 in0.0 mm 0.00 in0.0 mm
03:28 AM 43.2°F6.2°C 42.4°F5.8°C 97% 15.0 mph NE24.1 kmh NE 21.2 mph34.1 kmh 29.77 in1008.1 mb 0.00 in0.0 mm 0.00 in0.0 mm 0.00 in0.0 mm
03:27 AM 43.2°F6.2°C 42.4°F5.8°C 97% 11.4 mph ESE18.3 kmh ESE 21.2 mph34.1 kmh 29.77 in1008.1 mb 0.00 in0.0 mm 0.00 in0.0 mm 0.00 in0.0 mm
03:26 AM 43.2°F6.2°C 42.4°F5.8°C 97% 15.0 mph N24.1 kmh N 21.2 mph34.1 kmh 29.78 in1008.5 mb 0.00 in0.0 mm 0.00 in0.0 mm 0.00 in0.0 mm
03:25 AM 43.2°F6.2°C 42.4°F5.8°C 97% 9.9 mph NNE15.9 kmh NNE 21.2 mph34.1 kmh 29.78 in1008.5 mb 0.00 in0.0 mm 0.00 in0.0 mm 0.00 in0.0 mm
03:24 AM 43.2°F6.2°C 42.4°F5.8°C 97% 12.5 mph NNE20.1 kmh NNE 21.2 mph34.1 kmh 29.78 in1008.5 mb 0.00 in0.0 mm 0.00 in0.0 mm 0.00 in0.0 mm
03:23 AM 43.2°F6.2°C 42.4°F5.8°C 97% 16.1 mph NNE25.9 kmh NNE 19.7 mph31.7 kmh 29.78 in1008.5 mb 0.00 in0.0 mm 0.00 in0.0 mm 0.00 in0.0 mm
03:22 AM 43.2°F6.2°C 42.4°F5.8°C 97% 9.4 mph NE15.1 kmh NE 19.7 mph31.7 kmh 29.78 in1008.5 mb 0.00 in0.0 mm 0.00 in0.0 mm 0.00 in0.0 mm
03:21 AM 43.2°F6.2°C 42.4°F5.8°C 97% 11.9 mph NE19.2 kmh NE 19.7 mph31.7 kmh 29.78 in1008.5 mb 0.00 in0.0 mm 0.00 in0.0 mm 0.00 in0.0 mm
03:20 AM 43.2°F6.2°C 42.4°F5.8°C 97% 4.2 mph NE6.8 kmh NE 19.7 mph31.7 kmh 29.78 in1008.5 mb 0.00 in0.0 mm 0.00 in0.0 mm 0.00 in0.0 mm
03:19 AM 43.2°F6.2°C 42.4°F5.8°C 97% 19.7 mph NE31.7 kmh NE 19.7 mph31.7 kmh 29.78 in1008.5 mb 0.00 in0.0 mm 0.00 in0.0 mm 0.00 in0.0 mm
03:18 AM 43.2°F6.2°C 42.4°F5.8°C 97% 8.9 mph E14.3 kmh E 18.1 mph29.1 kmh 29.78 in1008.5 mb 0.00 in0.0 mm 0.00 in0.0 mm 0.00 in0.0 mm
03:17 AM 43.2°F6.2°C 42.4°F5.8°C 97% 13.0 mph NNE20.9 kmh NNE 18.1 mph29.1 kmh 29.78 in1008.5 mb 0.00 in0.0 mm 0.00 in0.0 mm 0.00 in0.0 mm
03:16 AM 43.2°F6.2°C 42.4°F5.8°C 97% 11.9 mph E19.2 kmh E 19.1 mph30.7 kmh 29.78 in1008.5 mb 0.00 in0.0 mm 0.00 in0.0 mm 0.00 in0.0 mm
03:15 AM 43.0°F6.1°C 42.2°F5.7°C 97% 11.4 mph ESE18.3 kmh ESE 19.1 mph30.7 kmh 29.78 in1008.5 mb 0.00 in0.0 mm 0.00 in0.0 mm 0.00 in0.0 mm
03:14 AM 43.0°F6.1°C 42.2°F5.7°C 97% 16.6 mph NE26.7 kmh NE 19.1 mph30.7 kmh 29.78 in1008.5 mb 0.00 in0.0 mm 0.00 in0.0 mm 0.00 in0.0 mm
03:13 AM 43.0°F6.1°C 42.2°F5.7°C 97% 18.1 mph ENE29.1 kmh ENE 19.1 mph30.7 kmh 29.78 in1008.5 mb 0.00 in0.0 mm 0.00 in0.0 mm 0.00 in0.0 mm
03:12 AM 43.0°F6.1°C 42.2°F5.7°C 97% 12.5 mph N20.1 kmh N 19.1 mph30.7 kmh 29.78 in1008.5 mb 0.00 in0.0 mm 0.00 in0.0 mm 0.00 in0.0 mm
03:11 AM 42.8°F6.0°C 42.0°F5.6°C 97% 11.4 mph NE18.3 kmh NE 19.1 mph30.7 kmh 29.78 in1008.5 mb 0.00 in0.0 mm 0.00 in0.0 mm 0.00 in0.0 mm
03:10 AM 42.8°F6.0°C 42.0°F5.6°C 97% 14.5 mph E23.3 kmh E 19.1 mph30.7 kmh 29.78 in1008.5 mb 0.00 in0.0 mm 0.00 in0.0 mm 0.00 in0.0 mm
03:09 AM 42.8°F6.0°C 42.0°F5.6°C 97% 10.9 mph NNE17.5 kmh NNE 19.1 mph30.7 kmh 29.78 in1008.5 mb 0.00 in0.0 mm 0.00 in0.0 mm 0.00 in0.0 mm
03:08 AM 42.8°F6.0°C 42.0°F5.6°C 97% 11.9 mph NNE19.2 kmh NNE 19.1 mph30.7 kmh 29.78 in1008.5 mb 0.00 in0.0 mm 0.00 in0.0 mm 0.00 in0.0 mm
03:07 AM 42.8°F6.0°C 42.0°F5.6°C 97% 16.6 mph E26.7 kmh E 19.1 mph30.7 kmh 29.78 in1008.5 mb 0.00 in0.0 mm 0.00 in0.0 mm 0.00 in0.0 mm
03:06 AM 42.8°F6.0°C 42.0°F5.6°C 97% 19.1 mph NNE30.7 kmh NNE 19.1 mph30.7 kmh 29.78 in1008.5 mb 0.00 in0.0 mm 0.00 in0.0 mm 0.00 in0.0 mm
03:05 AM 42.8°F6.0°C 42.0°F5.6°C 97% Calm Calm 17.1 mph27.5 kmh 29.78 in1008.5 mb 0.00 in0.0 mm 0.00 in0.0 mm 0.00 in0.0 mm
03:04 AM 42.8°F6.0°C 42.0°F5.6°C 97% 16.6 mph NE26.7 kmh NE 17.1 mph27.5 kmh 29.78 in1008.5 mb 0.00 in0.0 mm 0.00 in0.0 mm 0.00 in0.0 mm
03:03 AM 42.8°F6.0°C 42.0°F5.6°C 97% 10.4 mph NE16.7 kmh NE 16.6 mph26.7 kmh 29.78 in1008.5 mb 0.00 in0.0 mm 0.00 in0.0 mm 0.00 in0.0 mm
03:02 AM 42.8°F6.0°C 42.0°F5.6°C 97% Calm Calm 18.1 mph29.1 kmh 29.78 in1008.5 mb 0.00 in0.0 mm 0.00 in0.0 mm 0.00 in0.0 mm
03:01 AM 42.8°F6.0°C 42.0°F5.6°C 97% 6.3 mph NNE10.1 kmh NNE 18.1 mph29.1 kmh 29.78 in1008.5 mb 0.00 in0.0 mm 0.00 in0.0 mm 0.00 in0.0 mm
03:00 AM 42.8°F6.0°C 42.0°F5.6°C 97% 7.8 mph ENE12.6 kmh ENE 18.1 mph29.1 kmh 29.78 in1008.5 mb 0.00 in0.0 mm 0.00 in0.0 mm 0.00 in0.0 mm
02:59 AM 42.8°F6.0°C 42.0°F5.6°C 97% 14.0 mph ENE22.5 kmh ENE 18.1 mph29.1 kmh 29.78 in1008.5 mb 0.00 in0.0 mm 0.00 in0.0 mm 0.00 in0.0 mm
02:58 AM 42.8°F6.0°C 42.0°F5.6°C 97% 11.9 mph NE19.2 kmh NE 18.1 mph29.1 kmh 29.78 in1008.5 mb 0.00 in0.0 mm 0.00 in0.0 mm 0.00 in0.0 mm
02:57 AM 42.8°F6.0°C 42.0°F5.6°C 97% 14.5 mph ENE23.3 kmh ENE 18.1 mph29.1 kmh 29.78 in1008.5 mb 0.00 in0.0 mm 0.00 in0.0 mm 0.00 in0.0 mm
02:56 AM 42.8°F6.0°C 42.0°F5.6°C 97% 10.4 mph NE16.7 kmh NE 18.1 mph29.1 kmh 29.78 in1008.5 mb 0.00 in0.0 mm 0.00 in0.0 mm 0.00 in0.0 mm
02:55 AM 42.8°F6.0°C 42.0°F5.6°C 97% 10.4 mph NE16.7 kmh NE 18.1 mph29.1 kmh 29.78 in1008.5 mb 0.00 in0.0 mm 0.00 in0.0 mm 0.00 in0.0 mm
02:54 AM 42.8°F6.0°C 42.0°F5.6°C 97% 10.4 mph ENE16.7 kmh ENE 18.1 mph29.1 kmh 29.78 in1008.5 mb 0.00 in0.0 mm 0.00 in0.0 mm 0.00 in0.0 mm
02:53 AM 42.8°F6.0°C 42.0°F5.6°C 97% 15.0 mph N24.1 kmh N 18.1 mph29.1 kmh 29.78 in1008.5 mb 0.00 in0.0 mm 0.00 in0.0 mm 0.00 in0.0 mm
02:52 AM 42.8°F6.0°C 42.0°F5.6°C 97% 18.1 mph NNE29.1 kmh NNE 19.1 mph30.7 kmh 29.78 in1008.5 mb 0.00 in0.0 mm 0.00 in0.0 mm 0.00 in0.0 mm
02:51 AM 46.5°F8.1°C 45.7°F7.6°C 97% 9.4 mph NNE15.1 kmh NNE 19.1 mph30.7 kmh 29.78 in1008.5 mb 0.00 in0.0 mm 0.00 in0.0 mm 0.00 in0.0 mm
02:50 AM 46.5°F8.1°C 45.7°F7.6°C 97% 14.0 mph E22.5 kmh E 19.1 mph30.7 kmh 29.78 in1008.5 mb 0.00 in0.0 mm 0.00 in0.0 mm 0.00 in0.0 mm
02:49 AM 42.8°F6.0°C 42.0°F5.6°C 97% 8.3 mph N13.4 kmh N 19.1 mph30.7 kmh 29.77 in1008.1 mb 0.00 in0.0 mm 0.00 in0.0 mm 0.00 in0.0 mm
02:48 AM 42.8°F6.0°C 42.0°F5.6°C 97% 8.9 mph NNE14.3 kmh NNE 19.1 mph30.7 kmh 29.77 in1008.1 mb 0.00 in0.0 mm 0.00 in0.0 mm 0.00 in0.0 mm
02:47 AM 42.8°F6.0°C 42.0°F5.6°C 97% 10.4 mph NNE16.7 kmh NNE 21.7 mph34.9 kmh 29.77 in1008.1 mb 0.00 in0.0 mm 0.00 in0.0 mm 0.00 in0.0 mm
02:46 AM 42.8°F6.0°C 42.0°F5.6°C 97% 14.0 mph NNE22.5 kmh NNE 21.7 mph34.9 kmh 29.77 in1008.1 mb 0.00 in0.0 mm 0.00 in0.0 mm 0.00 in0.0 mm
02:45 AM 42.8°F6.0°C 42.0°F5.6°C 97% Calm Calm 21.7 mph34.9 kmh 29.77 in1008.1 mb 0.00 in0.0 mm 0.00 in0.0 mm 0.00 in0.0 mm
02:44 AM 42.8°F6.0°C 42.0°F5.6°C 97% 2.7 mph NNE4.3 kmh NNE 21.7 mph34.9 kmh 29.77 in1008.1 mb 0.00 in0.0 mm 0.00 in0.0 mm 0.00 in0.0 mm
02:43 AM 42.8°F6.0°C 42.0°F5.6°C 97% 13.0 mph NE20.9 kmh NE 21.7 mph34.9 kmh 29.77 in1008.1 mb 0.00 in0.0 mm 0.00 in0.0 mm 0.00 in0.0 mm
02:42 AM 43.0°F6.1°C 42.2°F5.7°C 97% 19.1 mph ENE30.7 kmh ENE 26.4 mph42.5 kmh 29.77 in1008.1 mb 0.00 in0.0 mm 0.00 in0.0 mm 0.00 in0.0 mm
02:41 AM 43.0°F6.1°C 42.2°F5.7°C 97% Calm Calm 26.4 mph42.5 kmh 29.77 in1008.1 mb 0.00 in0.0 mm 0.00 in0.0 mm 0.00 in0.0 mm
02:40 AM 43.0°F6.1°C 42.2°F5.7°C 97% 14.5 mph NNE23.3 kmh NNE 26.4 mph42.5 kmh 29.77 in1008.1 mb 0.00 in0.0 mm 0.00 in0.0 mm 0.00 in0.0 mm
02:39 AM 43.0°F6.1°C 42.2°F5.7°C 97% 8.9 mph NE14.3 kmh NE 26.4 mph42.5 kmh 29.77 in1008.1 mb 0.00 in0.0 mm 0.00 in0.0 mm 0.00 in0.0 mm
02:38 AM 43.0°F6.1°C 42.2°F5.7°C 97% Calm Calm 26.4 mph42.5 kmh 29.79 in1008.8 mb 0.00 in0.0 mm 0.00 in0.0 mm 0.00 in0.0 mm
02:37 AM 43.0°F6.1°C 42.2°F5.7°C 97% 3.7 mph NE6.0 kmh NE 26.4 mph42.5 kmh 29.79 in1008.8 mb 0.00 in0.0 mm 0.00 in0.0 mm 0.00 in0.0 mm
02:36 AM 43.0°F6.1°C 42.2°F5.7°C 97% 16.1 mph ENE25.9 kmh ENE 26.4 mph42.5 kmh 29.79 in1008.8 mb 0.00 in0.0 mm 0.00 in0.0 mm 0.00 in0.0 mm
02:35 AM 43.0°F6.1°C 42.2°F5.7°C 97% 13.5 mph NE21.7 kmh NE 26.4 mph42.5 kmh 29.79 in1008.8 mb 0.00 in0.0 mm 0.00 in0.0 mm 0.00 in0.0 mm
02:34 AM 43.0°F6.1°C 42.2°F5.7°C 97% 4.7 mph WNW7.6 kmh WNW 26.4 mph42.5 kmh 29.79 in1008.8 mb 0.00 in0.0 mm 0.00 in0.0 mm 0.00 in0.0 mm
02:33 AM 43.0°F6.1°C 42.2°F5.7°C 97% 21.2 mph NNE34.1 kmh NNE 26.4 mph42.5 kmh 29.79 in1008.8 mb 0.00 in0.0 mm 0.00 in0.0 mm 0.00 in0.0 mm
02:32 AM 43.0°F6.1°C 42.2°F5.7°C 97% 9.4 mph E15.1 kmh E 21.2 mph34.1 kmh 29.79 in1008.8 mb 0.00 in0.0 mm 0.00 in0.0 mm 0.00 in0.0 mm
02:31 AM 43.0°F6.1°C 42.2°F5.7°C 97% 9.4 mph ENE15.1 kmh ENE 21.2 mph34.1 kmh 29.79 in1008.8 mb 0.00 in0.0 mm 0.00 in0.0 mm 0.00 in0.0 mm
02:30 AM 43.0°F6.1°C 42.2°F5.7°C 97% 16.1 mph E25.9 kmh E 21.2 mph34.1 kmh 29.79 in1008.8 mb 0.00 in0.0 mm 0.00 in0.0 mm 0.00 in0.0 mm
02:29 AM 43.0°F6.1°C 42.2°F5.7°C 97% 17.1 mph NNE27.5 kmh NNE 21.2 mph34.1 kmh 29.79 in1008.8 mb 0.00 in0.0 mm 0.00 in0.0 mm 0.00 in0.0 mm
02:28 AM 43.0°F6.1°C 42.2°F5.7°C 97% 10.4 mph NE16.7 kmh NE 21.2 mph34.1 kmh 29.79 in1008.8 mb 0.00 in0.0 mm 0.00 in0.0 mm 0.00 in0.0 mm
02:27 AM 43.0°F6.1°C 42.2°F5.7°C 97% 12.5 mph NE20.1 kmh NE 21.2 mph34.1 kmh 29.79 in1008.8 mb 0.00 in0.0 mm 0.00 in0.0 mm 0.00 in0.0 mm
02:26 AM 43.2°F6.2°C 42.4°F5.8°C 97% 21.2 mph NE34.1 kmh NE 21.2 mph34.1 kmh 29.79 in1008.8 mb 0.00 in0.0 mm 0.00 in0.0 mm 0.00 in0.0 mm
02:25 AM 43.2°F6.2°C 42.4°F5.8°C 97% 11.9 mph ENE19.2 kmh ENE 18.1 mph29.1 kmh 29.79 in1008.8 mb 0.00 in0.0 mm 0.00 in0.0 mm 0.00 in0.0 mm
02:24 AM 43.2°F6.2°C 42.4°F5.8°C 97% 7.8 mph E12.6 kmh E 18.1 mph29.1 kmh 29.77 in1008.1 mb 0.00 in0.0 mm 0.00 in0.0 mm 0.00 in0.0 mm
02:23 AM 43.2°F6.2°C 42.4°F5.8°C 97% 10.9 mph NNE17.5 kmh NNE 18.1 mph29.1 kmh 29.77 in1008.1 mb 0.00 in0.0 mm 0.00 in0.0 mm 0.00 in0.0 mm
02:22 AM 43.2°F6.2°C 42.4°F5.8°C 97% 11.9 mph NE19.2 kmh NE 18.1 mph29.1 kmh 29.77 in1008.1 mb 0.00 in0.0 mm 0.00 in0.0 mm 0.00 in0.0 mm
02:21 AM 43.2°F6.2°C 42.4°F5.8°C 97% 16.6 mph NNE26.7 kmh NNE 18.1 mph29.1 kmh 29.77 in1008.1 mb 0.00 in0.0 mm 0.00 in0.0 mm 0.00 in0.0 mm
02:20 AM 43.2°F6.2°C 42.4°F5.8°C 97% 15.5 mph NNE24.9 kmh NNE 16.6 mph26.7 kmh 29.77 in1008.1 mb 0.00 in0.0 mm 0.00 in0.0 mm 0.00 in0.0 mm
02:19 AM 43.2°F6.2°C 42.4°F5.8°C 97% 13.5 mph NE21.7 kmh NE 19.1 mph30.7 kmh 29.77 in1008.1 mb 0.00 in0.0 mm 0.00 in0.0 mm 0.00 in0.0 mm
02:18 AM 43.2°F6.2°C 42.4°F5.8°C 97% 11.4 mph NE18.3 kmh NE 19.1 mph30.7 kmh 29.77 in1008.1 mb 0.00 in0.0 mm 0.00 in0.0 mm 0.00 in0.0 mm
02:17 AM 43.2°F6.2°C 42.4°F5.8°C 97% 6.8 mph NNE10.9 kmh NNE 19.1 mph30.7 kmh 29.77 in1008.1 mb 0.00 in0.0 mm 0.00 in0.0 mm 0.00 in0.0 mm
02:16 AM 43.2°F6.2°C 42.4°F5.8°C 97% 8.3 mph NNE13.4 kmh NNE 19.1 mph30.7 kmh 29.77 in1008.1 mb 0.00 in0.0 mm 0.00 in0.0 mm 0.00 in0.0 mm
02:15 AM 43.2°F6.2°C 42.4°F5.8°C 97% 16.6 mph NNE26.7 kmh NNE 19.1 mph30.7 kmh 29.77 in1008.1 mb 0.00 in0.0 mm 0.00 in0.0 mm 0.00 in0.0 mm
02:14 AM 43.2°F6.2°C 42.4°F5.8°C 97% 10.4 mph NNE16.7 kmh NNE 19.1 mph30.7 kmh 29.77 in1008.1 mb 0.00 in0.0 mm 0.00 in0.0 mm 0.00 in0.0 mm
02:13 AM 43.2°F6.2°C 42.4°F5.8°C 97% 9.9 mph NNE15.9 kmh NNE 19.1 mph30.7 kmh 29.77 in1008.1 mb 0.00 in0.0 mm 0.00 in0.0 mm 0.00 in0.0 mm
02:12 AM 43.2°F6.2°C 42.1°F5.6°C 96% 15.5 mph NE24.9 kmh NE 19.1 mph30.7 kmh 29.77 in1008.1 mb 0.00 in0.0 mm 0.00 in0.0 mm 0.00 in0.0 mm
02:11 AM 43.2°F6.2°C 42.1°F5.6°C 96% 10.9 mph ENE17.5 kmh ENE 19.1 mph30.7 kmh 29.77 in1008.1 mb 0.00 in0.0 mm 0.00 in0.0 mm 0.00 in0.0 mm
02:10 AM 43.2°F6.2°C 42.1°F5.6°C 96% 8.9 mph ENE14.3 kmh ENE 19.1 mph30.7 kmh 29.77 in1008.1 mb 0.00 in0.0 mm 0.00 in0.0 mm 0.00 in0.0 mm
02:09 AM 43.2°F6.2°C 42.1°F5.6°C 96% 11.9 mph NNE19.2 kmh NNE 18.6 mph29.9 kmh 29.77 in1008.1 mb 0.00 in0.0 mm 0.00 in0.0 mm 0.00 in0.0 mm
02:08 AM 43.2°F6.2°C 42.1°F5.6°C 96% 10.4 mph E16.7 kmh E 19.1 mph30.7 kmh 29.77 in1008.1 mb 0.00 in0.0 mm 0.00 in0.0 mm 0.00 in0.0 mm
02:07 AM 43.2°F6.2°C 42.1°F5.6°C 96% 13.0 mph N20.9 kmh N 19.1 mph30.7 kmh 29.77 in1008.1 mb 0.00 in0.0 mm 0.00 in0.0 mm 0.00 in0.0 mm
02:06 AM 43.2°F6.2°C 42.1°F5.6°C 96% 14.0 mph NNE22.5 kmh NNE 19.1 mph30.7 kmh 29.77 in1008.1 mb 0.00 in0.0 mm 0.00 in0.0 mm 0.00 in0.0 mm
02:05 AM 43.2°F6.2°C 42.1°F5.6°C 96% 18.6 mph NNE29.9 kmh NNE 19.1 mph30.7 kmh 29.77 in1008.1 mb 0.00 in0.0 mm 0.00 in0.0 mm 0.00 in0.0 mm
02:04 AM 43.2°F6.2°C 42.1°F5.6°C 96% 16.1 mph NE25.9 kmh NE 19.1 mph30.7 kmh 29.77 in1008.1 mb 0.00 in0.0 mm 0.00 in0.0 mm 0.00 in0.0 mm
02:03 AM 43.2°F6.2°C 42.1°F5.6°C 96% 8.9 mph WNW14.3 kmh WNW 19.1 mph30.7 kmh 29.77 in1008.1 mb 0.00 in0.0 mm 0.00 in0.0 mm 0.00 in0.0 mm
02:02 AM 43.2°F6.2°C 42.1°F5.6°C 96% 8.3 mph ENE13.4 kmh ENE 19.1 mph30.7 kmh 29.77 in1008.1 mb 0.00 in0.0 mm 0.00 in0.0 mm 0.00 in0.0 mm
02:01 AM 43.2°F6.2°C 42.1°F5.6°C 96% 7.8 mph ESE12.6 kmh ESE 19.1 mph30.7 kmh 29.77 in1008.1 mb 0.00 in0.0 mm 0.00 in0.0 mm 0.00 in0.0 mm
02:00 AM 43.2°F6.2°C 42.1°F5.6°C 96% 9.4 mph NNE15.1 kmh NNE 19.1 mph30.7 kmh 29.77 in1008.1 mb 0.00 in0.0 mm 0.00 in0.0 mm 0.00 in0.0 mm
01:59 AM 43.2°F6.2°C 42.1°F5.6°C 96% 14.0 mph ENE22.5 kmh ENE 19.1 mph30.7 kmh 29.77 in1008.1 mb 0.00 in0.0 mm 0.00 in0.0 mm 0.00 in0.0 mm
01:58 AM 43.2°F6.2°C 42.1°F5.6°C 96% 19.1 mph ENE30.7 kmh ENE 19.1 mph30.7 kmh 29.77 in1008.1 mb 0.00 in0.0 mm 0.00 in0.0 mm 0.00 in0.0 mm
01:57 AM 43.2°F6.2°C 42.1°F5.6°C 96% 10.9 mph ENE17.5 kmh ENE 18.6 mph29.9 kmh 29.77 in1008.1 mb 0.00 in0.0 mm 0.00 in0.0 mm 0.00 in0.0 mm
01:56 AM 43.2°F6.2°C 42.1°F5.6°C 96% 10.4 mph NE16.7 kmh NE 18.6 mph29.9 kmh 29.77 in1008.1 mb 0.00 in0.0 mm 0.00 in0.0 mm 0.00 in0.0 mm
01:55 AM 43.2°F6.2°C 42.1°F5.6°C 96% 13.5 mph NE21.7 kmh NE 18.6 mph29.9 kmh 29.77 in1008.1 mb 0.00 in0.0 mm 0.00 in0.0 mm 0.00 in0.0 mm
01:54 AM 43.3°F6.3°C 42.2°F5.7°C 96% 18.1 mph NE29.1 kmh NE 18.6 mph29.9 kmh 29.77 in1008.1 mb 0.00 in0.0 mm 0.00 in0.0 mm 0.00 in0.0 mm
01:53 AM 43.3°F6.3°C 42.2°F5.7°C 96% 15.5 mph NE24.9 kmh NE 18.6 mph29.9 kmh 29.77 in1008.1 mb 0.00 in0.0 mm 0.00 in0.0 mm 0.00 in0.0 mm
01:52 AM 43.3°F6.3°C 42.2°F5.7°C 96% 9.9 mph NE15.9 kmh NE 18.6 mph29.9 kmh 29.77 in1008.1 mb 0.00 in0.0 mm 0.00 in0.0 mm 0.00 in0.0 mm
01:51 AM 43.3°F6.3°C 42.2°F5.7°C 96% 10.9 mph E17.5 kmh E 18.6 mph29.9 kmh 29.77 in1008.1 mb 0.00 in0.0 mm 0.00 in0.0 mm 0.00 in0.0 mm
01:50 AM 43.3°F6.3°C 42.2°F5.7°C 96% 18.6 mph NNE29.9 kmh NNE 18.6 mph29.9 kmh 29.77 in1008.1 mb 0.00 in0.0 mm 0.00 in0.0 mm 0.00 in0.0 mm
01:49 AM 43.3°F6.3°C 42.2°F5.7°C 96% 2.2 mph NE3.5 kmh NE 21.2 mph34.1 kmh 29.78 in1008.5 mb 0.00 in0.0 mm 0.00 in0.0 mm 0.00 in0.0 mm
01:48 AM 43.3°F6.3°C 42.2°F5.7°C 96% 16.6 mph NE26.7 kmh NE 21.2 mph34.1 kmh 29.78 in1008.5 mb 0.00 in0.0 mm 0.00 in0.0 mm 0.00 in0.0 mm
01:47 AM 43.3°F6.3°C 42.2°F5.7°C 96% 13.5 mph ENE21.7 kmh ENE 21.2 mph34.1 kmh 29.78 in1008.5 mb 0.00 in0.0 mm 0.00 in0.0 mm 0.00 in0.0 mm
01:46 AM 43.3°F6.3°C 42.2°F5.7°C 96% 15.0 mph ENE24.1 kmh ENE 21.2 mph34.1 kmh 29.78 in1008.5 mb 0.00 in0.0 mm 0.00 in0.0 mm 0.00 in0.0 mm
01:45 AM 43.3°F6.3°C 42.2°F5.7°C 96% 17.6 mph ESE28.3 kmh ESE 21.2 mph34.1 kmh 29.78 in1008.5 mb 0.00 in0.0 mm 0.00 in0.0 mm 0.00 in0.0 mm
01:44 AM 43.3°F6.3°C 42.2°F5.7°C 96% 11.4 mph ENE18.3 kmh ENE 21.2 mph34.1 kmh 29.78 in1008.5 mb 0.00 in0.0 mm 0.00 in0.0 mm 0.00 in0.0 mm
01:43 AM 43.3°F6.3°C 42.0°F5.6°C 95% 9.9 mph ENE15.9 kmh ENE 21.2 mph34.1 kmh 29.78 in1008.5 mb 0.00 in0.0 mm 0.00 in0.0 mm 0.00 in0.0 mm
01:42 AM 43.3°F6.3°C 42.0°F5.6°C 95% 16.1 mph NNE25.9 kmh NNE 21.2 mph34.1 kmh 29.78 in1008.5 mb 0.00 in0.0 mm 0.00 in0.0 mm 0.00 in0.0 mm
01:41 AM 43.3°F6.3°C 42.0°F5.6°C 95% 5.3 mph N8.5 kmh N 21.2 mph34.1 kmh 29.78 in1008.5 mb 0.00 in0.0 mm 0.00 in0.0 mm 0.00 in0.0 mm
01:40 AM 43.5°F6.4°C 42.2°F5.7°C 95% 21.2 mph E34.1 kmh E 21.2 mph34.1 kmh 29.78 in1008.5 mb 0.00 in0.0 mm 0.00 in0.0 mm 0.00 in0.0 mm
01:39 AM 43.5°F6.4°C 42.2°F5.7°C 95% 17.1 mph E27.5 kmh E 21.2 mph34.1 kmh 29.78 in1008.5 mb 0.00 in0.0 mm 0.00 in0.0 mm 0.00 in0.0 mm
01:38 AM 43.5°F6.4°C 42.2°F5.7°C 95% 15.0 mph NE24.1 kmh NE 21.2 mph34.1 kmh 29.78 in1008.5 mb 0.00 in0.0 mm 0.00 in0.0 mm 0.00 in0.0 mm
01:37 AM 43.5°F6.4°C 42.2°F5.7°C 95% 13.5 mph NE21.7 kmh NE 21.2 mph34.1 kmh 29.78 in1008.5 mb 0.00 in0.0 mm 0.00 in0.0 mm 0.00 in0.0 mm
01:36 AM 43.5°F6.4°C 42.2°F5.7°C 95% 7.3 mph ENE11.7 kmh ENE 21.2 mph34.1 kmh 29.78 in1008.5 mb 0.00 in0.0 mm 0.00 in0.0 mm 0.00 in0.0 mm
01:35 AM 43.7°F6.5°C 42.4°F5.8°C 95% 13.5 mph NE21.7 kmh NE 21.2 mph34.1 kmh 29.78 in1008.5 mb 0.00 in0.0 mm 0.00 in0.0 mm 0.00 in0.0 mm
01:34 AM 43.7°F6.5°C 42.4°F5.8°C 95% 13.5 mph NE21.7 kmh NE 21.2 mph34.1 kmh 29.78 in1008.5 mb 0.00 in0.0 mm 0.00 in0.0 mm 0.00 in0.0 mm
01:33 AM 43.7°F6.5°C 42.4°F5.8°C 95% 12.5 mph NNE20.1 kmh NNE 21.2 mph34.1 kmh 29.78 in1008.5 mb 0.00 in0.0 mm 0.00 in0.0 mm 0.00 in0.0 mm
01:32 AM 43.7°F6.5°C 42.4°F5.8°C 95% 21.2 mph NNE34.1 kmh NNE 21.2 mph34.1 kmh 29.78 in1008.5 mb 0.00 in0.0 mm 0.00 in0.0 mm 0.00 in0.0 mm
01:31 AM 43.7°F6.5°C 42.4°F5.8°C 95% 6.3 mph NE10.1 kmh NE 19.7 mph31.7 kmh 29.78 in1008.5 mb 0.00 in0.0 mm 0.00 in0.0 mm 0.00 in0.0 mm
01:30 AM 43.7°F6.5°C 42.4°F5.8°C 95% 13.0 mph NE20.9 kmh NE 19.7 mph31.7 kmh 29.78 in1008.5 mb 0.00 in0.0 mm 0.00 in0.0 mm 0.00 in0.0 mm
01:29 AM 43.7°F6.5°C 42.4°F5.8°C 95% 16.6 mph ENE26.7 kmh ENE 19.7 mph31.7 kmh 29.78 in1008.5 mb 0.00 in0.0 mm 0.00 in0.0 mm 0.00 in0.0 mm
01:28 AM 43.7°F6.5°C 42.4°F5.8°C 95% 10.4 mph ENE16.7 kmh ENE 20.7 mph33.3 kmh 29.78 in1008.5 mb 0.00 in0.0 mm 0.00 in0.0 mm 0.00 in0.0 mm
01:27 AM 43.7°F6.5°C 42.4°F5.8°C 95% 17.6 mph NE28.3 kmh NE 20.7 mph33.3 kmh 29.78 in1008.5 mb 0.00 in0.0 mm 0.00 in0.0 mm 0.00 in0.0 mm
01:26 AM 43.7°F6.5°C 42.4°F5.8°C 95% 17.6 mph WNW28.3 kmh WNW 20.7 mph33.3 kmh 29.78 in1008.5 mb 0.00 in0.0 mm 0.00 in0.0 mm 0.00 in0.0 mm
01:25 AM 43.7°F6.5°C 42.4°F5.8°C 95% 14.0 mph NNE22.5 kmh NNE 22.2 mph35.7 kmh 29.77 in1008.1 mb 0.00 in0.0 mm 0.00 in0.0 mm 0.00 in0.0 mm
01:24 AM 43.7°F6.5°C 42.4°F5.8°C 95% 2.2 mph NE3.5 kmh NE 22.2 mph35.7 kmh 29.77 in1008.1 mb 0.00 in0.0 mm 0.00 in0.0 mm 0.00 in0.0 mm
01:23 AM 43.7°F6.5°C 42.4°F5.8°C 95% 16.6 mph ENE26.7 kmh ENE 22.2 mph35.7 kmh 29.77 in1008.1 mb 0.00 in0.0 mm 0.00 in0.0 mm 0.00 in0.0 mm
01:22 AM 43.7°F6.5°C 42.4°F5.8°C 95% 18.6 mph NE29.9 kmh NE 22.2 mph35.7 kmh 29.77 in1008.1 mb 0.00 in0.0 mm 0.00 in0.0 mm 0.00 in0.0 mm
01:21 AM 43.7°F6.5°C 42.4°F5.8°C 95% 9.4 mph NE15.1 kmh NE 22.2 mph35.7 kmh 29.77 in1008.1 mb 0.00 in0.0 mm 0.00 in0.0 mm 0.00 in0.0 mm
01:20 AM 43.7°F6.5°C 42.4°F5.8°C 95% 9.4 mph NE15.1 kmh NE 22.2 mph35.7 kmh 29.77 in1008.1 mb 0.00 in0.0 mm 0.00 in0.0 mm 0.00 in0.0 mm
01:19 AM 43.7°F6.5°C 42.4°F5.8°C 95% 12.5 mph E20.1 kmh E 22.2 mph35.7 kmh 29.77 in1008.1 mb 0.00 in0.0 mm 0.00 in0.0 mm 0.00 in0.0 mm
01:18 AM 43.7°F6.5°C 42.4°F5.8°C 95% 14.5 mph NNE23.3 kmh NNE 22.2 mph35.7 kmh 29.77 in1008.1 mb 0.00 in0.0 mm 0.00 in0.0 mm 0.00 in0.0 mm
01:17 AM 43.7°F6.5°C 42.4°F5.8°C 95% 18.1 mph ENE29.1 kmh ENE 22.2 mph35.7 kmh 29.77 in1008.1 mb 0.00 in0.0 mm 0.00 in0.0 mm 0.00 in0.0 mm
01:16 AM 43.7°F6.5°C 42.4°F5.8°C 95% 5.8 mph E9.3 kmh E 22.2 mph35.7 kmh 29.77 in1008.1 mb 0.00 in0.0 mm 0.00 in0.0 mm 0.00 in0.0 mm
01:15 AM 43.7°F6.5°C 42.6°F5.9°C 96% 22.2 mph NNE35.7 kmh NNE 22.2 mph35.7 kmh 29.77 in1008.1 mb 0.00 in0.0 mm 0.00 in0.0 mm 0.00 in0.0 mm
01:14 AM 43.7°F6.5°C 42.6°F5.9°C 96% 9.4 mph E15.1 kmh E 17.1 mph27.5 kmh 29.77 in1008.1 mb 0.00 in0.0 mm 0.00 in0.0 mm 0.00 in0.0 mm
01:13 AM 43.7°F6.5°C 42.6°F5.9°C 96% Calm Calm 17.1 mph27.5 kmh 29.77 in1008.1 mb 0.00 in0.0 mm 0.00 in0.0 mm 0.00 in0.0 mm
01:12 AM 43.7°F6.5°C 42.6°F5.9°C 96% 15.0 mph NNE24.1 kmh NNE 17.1 mph27.5 kmh 29.77 in1008.1 mb 0.00 in0.0 mm 0.00 in0.0 mm 0.00 in0.0 mm
01:11 AM 43.7°F6.5°C 42.6°F5.9°C 96% 6.3 mph NNE10.1 kmh NNE 17.1 mph27.5 kmh 29.77 in1008.1 mb 0.00 in0.0 mm 0.00 in0.0 mm 0.00 in0.0 mm
01:10 AM 43.7°F6.5°C 42.6°F5.9°C 96% 11.4 mph N18.3 kmh N 17.1 mph27.5 kmh 29.77 in1008.1 mb 0.00 in0.0 mm 0.00 in0.0 mm 0.00 in0.0 mm
01:09 AM 43.7°F6.5°C 42.6°F5.9°C 96% 11.4 mph NE18.3 kmh NE 17.1 mph27.5 kmh 29.77 in1008.1 mb 0.00 in0.0 mm 0.00 in0.0 mm 0.00 in0.0 mm
01:08 AM 43.7°F6.5°C 42.6°F5.9°C 96% 14.0 mph E22.5 kmh E 17.1 mph27.5 kmh 29.77 in1008.1 mb 0.00 in0.0 mm 0.00 in0.0 mm 0.00 in0.0 mm
01:07 AM 43.7°F6.5°C 42.6°F5.9°C 96% 11.4 mph NE18.3 kmh NE 17.1 mph27.5 kmh 29.77 in1008.1 mb 0.00 in0.0 mm 0.00 in0.0 mm 0.00 in0.0 mm
01:06 AM 43.7°F6.5°C 42.6°F5.9°C 96% 6.8 mph E10.9 kmh E 17.1 mph27.5 kmh 29.77 in1008.1 mb 0.00 in0.0 mm 0.00 in0.0 mm 0.00 in0.0 mm
01:05 AM 43.7°F6.5°C 42.6°F5.9°C 96% Calm Calm 17.1 mph27.5 kmh 29.77 in1008.1 mb 0.00 in0.0 mm 0.00 in0.0 mm 0.00 in0.0 mm
01:04 AM 43.7°F6.5°C 42.6°F5.9°C 96% 11.4 mph ENE18.3 kmh ENE 17.1 mph27.5 kmh 29.77 in1008.1 mb 0.00 in0.0 mm 0.00 in0.0 mm 0.00 in0.0 mm
01:03 AM 43.7°F6.5°C 42.6°F5.9°C 96% 12.5 mph NE20.1 kmh NE 17.1 mph27.5 kmh 29.77 in1008.1 mb 0.00 in0.0 mm 0.00 in0.0 mm 0.00 in0.0 mm
01:02 AM 43.7°F6.5°C 42.6°F5.9°C 96% 12.5 mph NE20.1 kmh NE 17.1 mph27.5 kmh 29.77 in1008.1 mb 0.00 in0.0 mm 0.00 in0.0 mm 0.00 in0.0 mm
01:01 AM 43.7°F6.5°C 42.6°F5.9°C 96% 14.0 mph ENE22.5 kmh ENE 17.1 mph27.5 kmh 29.77 in1008.1 mb 0.00 in0.0 mm 0.00 in0.0 mm 0.00 in0.0 mm
01:00 AM 43.7°F6.5°C 42.6°F5.9°C 96% 10.9 mph E17.5 kmh E 20.2 mph32.5 kmh 29.77 in1008.1 mb 0.00 in0.0 mm 0.00 in0.0 mm 0.00 in0.0 mm
12:59 AM 43.7°F6.5°C 42.6°F5.9°C 96% 5.3 mph NE8.5 kmh NE 20.2 mph32.5 kmh 29.77 in1008.1 mb 0.00 in0.0 mm 0.00 in0.0 mm 0.00 in0.0 mm
12:58 AM 43.7°F6.5°C 42.6°F5.9°C 96% Calm Calm 20.2 mph32.5 kmh 29.77 in1008.1 mb 0.00 in0.0 mm 0.00 in0.0 mm 0.00 in0.0 mm
12:57 AM 43.7°F6.5°C 42.6°F5.9°C 96% 8.3 mph NNE13.4 kmh NNE 20.2 mph32.5 kmh 29.77 in1008.1 mb 0.00 in0.0 mm 0.00 in0.0 mm 0.00 in0.0 mm
12:56 AM 43.7°F6.5°C 42.6°F5.9°C 96% 7.8 mph ENE12.6 kmh ENE 20.2 mph32.5 kmh 29.77 in1008.1 mb 0.00 in0.0 mm 0.00 in0.0 mm 0.00 in0.0 mm
12:55 AM 43.7°F6.5°C 42.6°F5.9°C 96% 2.2 mph E3.5 kmh E 20.2 mph32.5 kmh 29.77 in1008.1 mb 0.00 in0.0 mm 0.00 in0.0 mm 0.00 in0.0 mm
12:54 AM 43.7°F6.5°C 42.6°F5.9°C 96% 1.1 mph NE1.8 kmh NE 20.2 mph32.5 kmh 29.77 in1008.1 mb 0.00 in0.0 mm 0.00 in0.0 mm 0.00 in0.0 mm
12:53 AM 43.7°F6.5°C 42.6°F5.9°C 96% 2.7 mph NNW4.3 kmh NNW 20.2 mph32.5 kmh 29.77 in1008.1 mb 0.00 in0.0 mm 0.00 in0.0 mm 0.00 in0.0 mm
12:52 AM 43.7°F6.5°C 42.6°F5.9°C 96% Calm Calm 20.2 mph32.5 kmh 29.77 in1008.1 mb 0.00 in0.0 mm 0.00 in0.0 mm 0.00 in0.0 mm
12:51 AM 43.7°F6.5°C 42.6°F5.9°C 96% 14.0 mph NNE22.5 kmh NNE 20.2 mph32.5 kmh 29.77 in1008.1 mb 0.00 in0.0 mm 0.00 in0.0 mm 0.00 in0.0 mm
12:50 AM 43.7°F6.5°C 42.6°F5.9°C 96% 15.0 mph NE24.1 kmh NE 17.1 mph27.5 kmh 29.77 in1008.1 mb 0.00 in0.0 mm 0.00 in0.0 mm 0.00 in0.0 mm
12:49 AM 43.7°F6.5°C 42.6°F5.9°C 96% 8.9 mph WNW14.3 kmh WNW 17.1 mph27.5 kmh 29.77 in1008.1 mb 0.00 in0.0 mm 0.00 in0.0 mm 0.00 in0.0 mm
12:48 AM 43.7°F6.5°C 42.6°F5.9°C 96% Calm Calm 17.1 mph27.5 kmh 29.78 in1008.5 mb 0.00 in0.0 mm 0.00 in0.0 mm 0.00 in0.0 mm
12:47 AM 43.7°F6.5°C 42.6°F5.9°C 96% 13.0 mph E20.9 kmh E 17.1 mph27.5 kmh 29.78 in1008.5 mb 0.00 in0.0 mm 0.00 in0.0 mm 0.00 in0.0 mm
12:46 AM 43.7°F6.5°C 42.6°F5.9°C 96% 14.0 mph NNE22.5 kmh NNE 17.1 mph27.5 kmh 29.78 in1008.5 mb 0.00 in0.0 mm 0.00 in0.0 mm 0.00 in0.0 mm
12:45 AM 43.7°F6.5°C 42.6°F5.9°C 96% Calm Calm 17.1 mph27.5 kmh 29.78 in1008.5 mb 0.00 in0.0 mm 0.00 in0.0 mm 0.00 in0.0 mm
12:44 AM 43.7°F6.5°C 42.6°F5.9°C 96% 14.5 mph NE23.3 kmh NE 17.1 mph27.5 kmh 29.78 in1008.5 mb 0.00 in0.0 mm 0.00 in0.0 mm 0.00 in0.0 mm
12:43 AM 43.7°F6.5°C 42.6°F5.9°C 96% 11.9 mph NNE19.2 kmh NNE 18.6 mph29.9 kmh 29.78 in1008.5 mb 0.00 in0.0 mm 0.00 in0.0 mm 0.00 in0.0 mm
12:42 AM 43.7°F6.5°C 42.6°F5.9°C 96% 9.4 mph ENE15.1 kmh ENE 18.6 mph29.9 kmh 29.78 in1008.5 mb 0.00 in0.0 mm 0.00 in0.0 mm 0.00 in0.0 mm
12:41 AM 43.7°F6.5°C 42.6°F5.9°C 96% Calm Calm 18.6 mph29.9 kmh 29.78 in1008.5 mb 0.00 in0.0 mm 0.00 in0.0 mm 0.00 in0.0 mm
12:40 AM 43.7°F6.5°C 42.6°F5.9°C 96% 11.4 mph NE18.3 kmh NE 18.6 mph29.9 kmh 29.78 in1008.5 mb 0.00 in0.0 mm 0.00 in0.0 mm 0.00 in0.0 mm
12:39 AM 43.7°F6.5°C 42.6°F5.9°C 96% 1.7 mph N2.7 kmh N 21.2 mph34.1 kmh 29.78 in1008.5 mb 0.00 in0.0 mm 0.00 in0.0 mm 0.00 in0.0 mm
12:38 AM 43.7°F6.5°C 42.6°F5.9°C 96% 10.9 mph NNE17.5 kmh NNE 21.2 mph34.1 kmh 29.78 in1008.5 mb 0.00 in0.0 mm 0.00 in0.0 mm 0.00 in0.0 mm
12:37 AM 43.7°F6.5°C 42.6°F5.9°C 96% 12.5 mph E20.1 kmh E 21.2 mph34.1 kmh 29.78 in1008.5 mb 0.00 in0.0 mm 0.00 in0.0 mm 0.00 in0.0 mm
12:36 AM 43.7°F6.5°C 42.6°F5.9°C 96% 11.4 mph ESE18.3 kmh ESE 21.2 mph34.1 kmh 29.78 in1008.5 mb 0.00 in0.0 mm 0.00 in0.0 mm 0.00 in0.0 mm
12:35 AM 43.7°F6.5°C 42.6°F5.9°C 96% Calm Calm 21.2 mph34.1 kmh 29.78 in1008.5 mb 0.00 in0.0 mm 0.00 in0.0 mm 0.00 in0.0 mm
12:34 AM 43.7°F6.5°C 42.6°F5.9°C 96% 10.4 mph NNE16.7 kmh NNE 21.2 mph34.1 kmh 29.78 in1008.5 mb 0.00 in0.0 mm 0.00 in0.0 mm 0.00 in0.0 mm
12:33 AM 43.7°F6.5°C 42.6°F5.9°C 96% 15.0 mph ESE24.1 kmh ESE 21.2 mph34.1 kmh 29.78 in1008.5 mb 0.00 in0.0 mm 0.00 in0.0 mm 0.00 in0.0 mm
12:32 AM 43.7°F6.5°C 42.6°F5.9°C 96% 6.8 mph ESE10.9 kmh ESE 21.2 mph34.1 kmh 29.78 in1008.5 mb 0.00 in0.0 mm 0.00 in0.0 mm 0.00 in0.0 mm
12:31 AM 43.7°F6.5°C 42.6°F5.9°C 96% 1.7 mph NE2.7 kmh NE 21.2 mph34.1 kmh 29.78 in1008.5 mb 0.00 in0.0 mm 0.00 in0.0 mm 0.00 in0.0 mm
12:30 AM 43.7°F6.5°C 42.6°F5.9°C 96% 14.5 mph ENE23.3 kmh ENE 21.2 mph34.1 kmh 29.78 in1008.5 mb 0.00 in0.0 mm 0.00 in0.0 mm 0.00 in0.0 mm
12:29 AM 43.7°F6.5°C 42.6°F5.9°C 96% 21.2 mph NNE34.1 kmh NNE 21.2 mph34.1 kmh 29.78 in1008.5 mb 0.00 in0.0 mm 0.00 in0.0 mm 0.00 in0.0 mm
12:28 AM 43.7°F6.5°C 42.6°F5.9°C 96% 16.6 mph NNE26.7 kmh NNE 18.6 mph29.9 kmh 29.78 in1008.5 mb 0.00 in0.0 mm 0.00 in0.0 mm 0.00 in0.0 mm
12:27 AM 43.7°F6.5°C 42.6°F5.9°C 96% 6.3 mph NE10.1 kmh NE 19.1 mph30.7 kmh 29.78 in1008.5 mb 0.00 in0.0 mm 0.00 in0.0 mm 0.00 in0.0 mm
12:26 AM 43.7°F6.5°C 42.6°F5.9°C 96% 10.4 mph NE16.7 kmh NE 21.7 mph34.9 kmh 29.78 in1008.5 mb 0.00 in0.0 mm 0.00 in0.0 mm 0.00 in0.0 mm
12:25 AM 43.7°F6.5°C 42.6°F5.9°C 96% 9.4 mph ENE15.1 kmh ENE 21.7 mph34.9 kmh 29.78 in1008.5 mb 0.00 in0.0 mm 0.00 in0.0 mm 0.00 in0.0 mm
12:24 AM 43.7°F6.5°C 42.6°F5.9°C 96% 13.5 mph NNW21.7 kmh NNW 21.7 mph34.9 kmh 29.78 in1008.5 mb 0.00 in0.0 mm 0.00 in0.0 mm 0.00 in0.0 mm
12:23 AM 43.7°F6.5°C 42.6°F5.9°C 96% Calm Calm 21.7 mph34.9 kmh 29.78 in1008.5 mb 0.00 in0.0 mm 0.00 in0.0 mm 0.00 in0.0 mm
12:22 AM 43.7°F6.5°C 42.6°F5.9°C 96% 2.2 mph E3.5 kmh E 21.7 mph34.9 kmh 29.78 in1008.5 mb 0.00 in0.0 mm 0.00 in0.0 mm 0.00 in0.0 mm
12:21 AM 43.7°F6.5°C 42.6°F5.9°C 96% 7.3 mph ESE11.7 kmh ESE 21.7 mph34.9 kmh 29.78 in1008.5 mb 0.00 in0.0 mm 0.00 in0.0 mm 0.00 in0.0 mm
12:20 AM 43.7°F6.5°C 42.6°F5.9°C 96% 3.2 mph ESE5.1 kmh ESE 21.7 mph34.9 kmh 29.78 in1008.5 mb 0.00 in0.0 mm 0.00 in0.0 mm 0.00 in0.0 mm
12:19 AM 43.7°F6.5°C 42.6°F5.9°C 96% 11.9 mph NNE19.2 kmh NNE 21.7 mph34.9 kmh 29.78 in1008.5 mb 0.00 in0.0 mm 0.00 in0.0 mm 0.00 in0.0 mm
12:18 AM 43.7°F6.5°C 42.6°F5.9°C 96% 19.1 mph ENE30.7 kmh ENE 21.7 mph34.9 kmh 29.78 in1008.5 mb 0.00 in0.0 mm 0.00 in0.0 mm 0.00 in0.0 mm
12:17 AM 43.7°F6.5°C 42.6°F5.9°C 96% 21.7 mph NNE34.9 kmh NNE 21.7 mph34.9 kmh 29.78 in1008.5 mb 0.00 in0.0 mm 0.00 in0.0 mm 0.00 in0.0 mm
12:16 AM 43.7°F6.5°C 42.6°F5.9°C 96% 8.9 mph ENE14.3 kmh ENE 17.6 mph28.3 kmh 29.78 in1008.5 mb 0.00 in0.0 mm 0.00 in0.0 mm 0.00 in0.0 mm
12:15 AM 43.7°F6.5°C 42.6°F5.9°C 96% 9.4 mph E15.1 kmh E 21.7 mph34.9 kmh 29.78 in1008.5 mb 0.00 in0.0 mm 0.00 in0.0 mm 0.00 in0.0 mm
12:14 AM 43.7°F6.5°C 42.6°F5.9°C 96% 11.9 mph NNW19.2 kmh NNW 21.7 mph34.9 kmh 29.78 in1008.5 mb 0.00 in0.0 mm 0.00 in0.0 mm 0.00 in0.0 mm
12:13 AM 43.7°F6.5°C 42.6°F5.9°C 96% 6.3 mph NNW10.1 kmh NNW 21.7 mph34.9 kmh 29.77 in1008.1 mb 0.00 in0.0 mm 0.00 in0.0 mm 0.00 in0.0 mm
12:12 AM 43.7°F6.5°C 42.6°F5.9°C 96% 3.2 mph E5.1 kmh E 21.7 mph34.9 kmh 29.77 in1008.1 mb 0.00 in0.0 mm 0.00 in0.0 mm 0.00 in0.0 mm
12:11 AM 43.9°F6.6°C 42.8°F6.0°C 96% 11.4 mph E18.3 kmh E 21.7 mph34.9 kmh 29.77 in1008.1 mb 0.00 in0.0 mm 0.00 in0.0 mm 0.00 in0.0 mm
12:10 AM 43.9°F6.6°C 42.8°F6.0°C 96% Calm Calm 21.7 mph34.9 kmh 29.77 in1008.1 mb 0.00 in0.0 mm 0.00 in0.0 mm 0.00 in0.0 mm
12:09 AM 43.9°F6.6°C 42.8°F6.0°C 96% 13.0 mph WNW20.9 kmh WNW 21.7 mph34.9 kmh 29.77 in1008.1 mb 0.00 in0.0 mm 0.00 in0.0 mm 0.00 in0.0 mm
12:08 AM 43.9°F6.6°C 42.8°F6.0°C 96% 15.0 mph NNE24.1 kmh NNE 21.7 mph34.9 kmh 29.77 in1008.1 mb 0.00 in0.0 mm 0.00 in0.0 mm 0.00 in0.0 mm
12:07 AM 43.9°F6.6°C 42.8°F6.0°C 96% 9.4 mph NNE15.1 kmh NNE 21.7 mph34.9 kmh 29.77 in1008.1 mb 0.00 in0.0 mm 0.00 in0.0 mm 0.00 in0.0 mm
12:06 AM 43.9°F6.6°C 42.8°F6.0°C 96% 17.6 mph ENE28.3 kmh ENE 21.7 mph34.9 kmh 29.77 in1008.1 mb 0.00 in0.0 mm 0.00 in0.0 mm 0.00 in0.0 mm
12:05 AM 43.9°F6.6°C 42.8°F6.0°C 96% 11.4 mph ENE18.3 kmh ENE 17.1 mph27.5 kmh 29.77 in1008.1 mb 0.00 in0.0 mm 0.00 in0.0 mm 0.00 in0.0 mm
12:04 AM 43.9°F6.6°C 42.8°F6.0°C 96% 6.8 mph NE10.9 kmh NE 17.1 mph27.5 kmh 29.77 in1008.1 mb 0.00 in0.0 mm 0.00 in0.0 mm 0.00 in0.0 mm
12:03 AM 43.9°F6.6°C 42.8°F6.0°C 96% 17.1 mph NE27.5 kmh NE 17.1 mph27.5 kmh 29.77 in1008.1 mb 0.00 in0.0 mm 0.00 in0.0 mm 0.00 in0.0 mm
12:02 AM 43.9°F6.6°C 42.8°F6.0°C 96% 11.4 mph E18.3 kmh E 17.1 mph27.5 kmh 29.78 in1008.5 mb 0.00 in0.0 mm 0.00 in0.0 mm 0.00 in0.0 mm
12:01 AM 43.9°F6.6°C 42.8°F6.0°C 96% 15.5 mph NE24.9 kmh NE 17.1 mph27.5 kmh 29.78 in1008.5 mb 0.00 in0.0 mm 0.00 in0.0 mm 0.00 in0.0 mm
12:00 AM 46.4°F8.0°C 45.3°F7.4°C 96% 10.9 mph ENE17.5 kmh ENE 17.1 mph27.5 kmh 29.78 in1008.5 mb 0.00 in0.0 mm 0.00 in0.0 mm 0.00 in0.0 mm